<?xml version='1.0' encoding='UTF-8'?>
<gpx version="1.1" creator="https://www.komoot.de" xmlns="http://www.topografix.com/GPX/1/1" xmlns:xsi="http://www.w3.org/2001/XMLSchema-instance" xsi:schemaLocation="http://www.topografix.com/GPX/1/1 http://www.topografix.com/GPX/1/1/gpx.xsd">
  <metadata>
    <name>Gravel Sella dell'oca Quarone</name>
    <author>
      <link href="https://www.komoot.de">
        <text>komoot</text>
        <type>text/html</type>
      </link>
    </author>
  </metadata>
  <trk>
    <name>Gravel Sella dell'oca Quarone</name>
    <trkseg>
      <trkpt lat="45.633510" lon="10.197522">
        <ele>239.187972</ele>
        <time>2023-10-20T07:39:00.601Z</time>
      </trkpt>
      <trkpt lat="45.632960" lon="10.197621">
        <ele>239.187972</ele>
        <time>2023-10-20T07:39:11.167Z</time>
      </trkpt>
      <trkpt lat="45.632812" lon="10.197679">
        <ele>239.187972</ele>
        <time>2023-10-20T07:39:14.220Z</time>
      </trkpt>
      <trkpt lat="45.632639" lon="10.197820">
        <ele>239.186642</ele>
        <time>2023-10-20T07:39:18.103Z</time>
      </trkpt>
      <trkpt lat="45.632505" lon="10.197995">
        <ele>239.154887</ele>
        <time>2023-10-20T07:39:21.765Z</time>
      </trkpt>
      <trkpt lat="45.632415" lon="10.198088">
        <ele>239.135457</ele>
        <time>2023-10-20T07:39:23.921Z</time>
      </trkpt>
      <trkpt lat="45.632291" lon="10.198106">
        <ele>239.113647</ele>
        <time>2023-10-20T07:39:26.465Z</time>
      </trkpt>
      <trkpt lat="45.632282" lon="10.198083">
        <ele>239.110422</ele>
        <time>2023-10-20T07:39:26.857Z</time>
      </trkpt>
      <trkpt lat="45.632210" lon="10.197988">
        <ele>239.093279</ele>
        <time>2023-10-20T07:39:28.903Z</time>
      </trkpt>
      <trkpt lat="45.632114" lon="10.197959">
        <ele>239.076110</ele>
        <time>2023-10-20T07:39:30.857Z</time>
      </trkpt>
      <trkpt lat="45.632038" lon="10.197990">
        <ele>239.062280</ele>
        <time>2023-10-20T07:39:32.475Z</time>
      </trkpt>
      <trkpt lat="45.631858" lon="10.197965">
        <ele>239.030634</ele>
        <time>2023-10-20T07:39:36.372Z</time>
      </trkpt>
      <trkpt lat="45.631747" lon="10.197858">
        <ele>239.007209</ele>
        <time>2023-10-20T07:39:39.189Z</time>
      </trkpt>
      <trkpt lat="45.631697" lon="10.197747">
        <ele>238.991052</ele>
        <time>2023-10-20T07:39:41.276Z</time>
      </trkpt>
      <trkpt lat="45.631643" lon="10.197509">
        <ele>238.960435</ele>
        <time>2023-10-20T07:39:45.414Z</time>
      </trkpt>
      <trkpt lat="45.632149" lon="10.197601">
        <ele>238.892780</ele>
        <time>2023-10-20T07:39:58.014Z</time>
      </trkpt>
      <trkpt lat="45.632211" lon="10.197592">
        <ele>238.996769</ele>
        <time>2023-10-20T07:39:59.664Z</time>
      </trkpt>
      <trkpt lat="45.632294" lon="10.197504">
        <ele>239.169179</ele>
        <time>2023-10-20T07:40:02.526Z</time>
      </trkpt>
      <trkpt lat="45.632335" lon="10.197395">
        <ele>239.313596</ele>
        <time>2023-10-20T07:40:04.864Z</time>
      </trkpt>
      <trkpt lat="45.632438" lon="10.196234">
        <ele>240.679140</ele>
        <time>2023-10-20T07:40:29.972Z</time>
      </trkpt>
      <trkpt lat="45.632480" lon="10.196066">
        <ele>240.887318</ele>
        <time>2023-10-20T07:40:34.080Z</time>
      </trkpt>
      <trkpt lat="45.632591" lon="10.195836">
        <ele>241.213399</ele>
        <time>2023-10-20T07:40:40.443Z</time>
      </trkpt>
      <trkpt lat="45.632543" lon="10.195822">
        <ele>241.295143</ele>
        <time>2023-10-20T07:40:42.007Z</time>
      </trkpt>
      <trkpt lat="45.632481" lon="10.195755">
        <ele>241.424816</ele>
        <time>2023-10-20T07:40:44.443Z</time>
      </trkpt>
      <trkpt lat="45.632481" lon="10.195716">
        <ele>241.470322</ele>
        <time>2023-10-20T07:40:45.322Z</time>
      </trkpt>
      <trkpt lat="45.632483" lon="10.195205">
        <ele>242.152625</ele>
        <time>2023-10-20T07:40:57.107Z</time>
      </trkpt>
      <trkpt lat="45.632446" lon="10.194449">
        <ele>243.433143</ele>
        <time>2023-10-20T07:41:15.058Z</time>
      </trkpt>
      <trkpt lat="45.632447" lon="10.194047">
        <ele>244.112395</ele>
        <time>2023-10-20T07:41:24.749Z</time>
      </trkpt>
      <trkpt lat="45.632174" lon="10.194053">
        <ele>244.772144</ele>
        <time>2023-10-20T07:41:34.021Z</time>
      </trkpt>
      <trkpt lat="45.632259" lon="10.192641">
        <ele>247.162545</ele>
        <time>2023-10-20T07:42:09.619Z</time>
      </trkpt>
      <trkpt lat="45.632370" lon="10.192615">
        <ele>247.433115</ele>
        <time>2023-10-20T07:42:13.485Z</time>
      </trkpt>
      <trkpt lat="45.632526" lon="10.191720">
        <ele>248.984640</ele>
        <time>2023-10-20T07:42:35.035Z</time>
      </trkpt>
      <trkpt lat="45.632333" lon="10.191642">
        <ele>249.467088</ele>
        <time>2023-10-20T07:42:41.090Z</time>
      </trkpt>
      <trkpt lat="45.631447" lon="10.191389">
        <ele>253.315228</ele>
        <time>2023-10-20T07:43:11.348Z</time>
      </trkpt>
      <trkpt lat="45.631367" lon="10.191379">
        <ele>253.804393</ele>
        <time>2023-10-20T07:43:14.707Z</time>
      </trkpt>
      <trkpt lat="45.631300" lon="10.191425">
        <ele>254.257110</ele>
        <time>2023-10-20T07:43:17.988Z</time>
      </trkpt>
      <trkpt lat="45.631245" lon="10.191303">
        <ele>254.875403</ele>
        <time>2023-10-20T07:43:23.094Z</time>
      </trkpt>
      <trkpt lat="45.631252" lon="10.190258">
        <ele>259.326792</ele>
        <time>2023-10-20T07:44:02.921Z</time>
      </trkpt>
      <trkpt lat="45.631238" lon="10.190073">
        <ele>260.119402</ele>
        <time>2023-10-20T07:44:11.501Z</time>
      </trkpt>
      <trkpt lat="45.631063" lon="10.189955">
        <ele>261.297939</ele>
        <time>2023-10-20T07:44:26.324Z</time>
      </trkpt>
      <trkpt lat="45.630840" lon="10.189908">
        <ele>264.365803</ele>
        <time>2023-10-20T07:44:45.452Z</time>
      </trkpt>
      <trkpt lat="45.630630" lon="10.189921">
        <ele>267.504976</ele>
        <time>2023-10-20T07:45:06.453Z</time>
      </trkpt>
      <trkpt lat="45.630519" lon="10.189946">
        <ele>269.183135</ele>
        <time>2023-10-20T07:45:17.462Z</time>
      </trkpt>
      <trkpt lat="45.630288" lon="10.190047">
        <ele>272.790642</ele>
        <time>2023-10-20T07:45:43.511Z</time>
      </trkpt>
      <trkpt lat="45.630158" lon="10.190133">
        <ele>274.929799</ele>
        <time>2023-10-20T07:45:56.768Z</time>
      </trkpt>
      <trkpt lat="45.630126" lon="10.190102">
        <ele>275.507037</ele>
        <time>2023-10-20T07:46:01.027Z</time>
      </trkpt>
      <trkpt lat="45.630265" lon="10.189666">
        <ele>280.511268</ele>
        <time>2023-10-20T07:46:36.321Z</time>
      </trkpt>
      <trkpt lat="45.630367" lon="10.189483">
        <ele>282.955237</ele>
        <time>2023-10-20T07:46:55.284Z</time>
      </trkpt>
      <trkpt lat="45.630505" lon="10.189263">
        <ele>286.041705</ele>
        <time>2023-10-20T07:47:19.541Z</time>
      </trkpt>
      <trkpt lat="45.630536" lon="10.189062">
        <ele>288.191278</ele>
        <time>2023-10-20T07:47:37.135Z</time>
      </trkpt>
      <trkpt lat="45.630538" lon="10.189018">
        <ele>288.665272</ele>
        <time>2023-10-20T07:47:40.846Z</time>
      </trkpt>
      <trkpt lat="45.630527" lon="10.188842">
        <ele>290.597696</ele>
        <time>2023-10-20T07:47:58.504Z</time>
      </trkpt>
      <trkpt lat="45.630478" lon="10.188679">
        <ele>292.538016</ele>
        <time>2023-10-20T07:48:15.357Z</time>
      </trkpt>
      <trkpt lat="45.630491" lon="10.188389">
        <ele>295.715995</ele>
        <time>2023-10-20T07:48:40.349Z</time>
      </trkpt>
      <trkpt lat="45.630451" lon="10.188013">
        <ele>299.875281</ele>
        <time>2023-10-20T07:49:13.092Z</time>
      </trkpt>
      <trkpt lat="45.630334" lon="10.187467">
        <ele>306.120466</ele>
        <time>2023-10-20T07:49:56.549Z</time>
      </trkpt>
      <trkpt lat="45.630161" lon="10.187039">
        <ele>311.526822</ele>
        <time>2023-10-20T07:50:30.299Z</time>
      </trkpt>
      <trkpt lat="45.630102" lon="10.186945">
        <ele>312.908184</ele>
        <time>2023-10-20T07:50:40.505Z</time>
      </trkpt>
      <trkpt lat="45.630061" lon="10.186980">
        <ele>313.654942</ele>
        <time>2023-10-20T07:50:45.906Z</time>
      </trkpt>
      <trkpt lat="45.630058" lon="10.187136">
        <ele>315.361632</ele>
        <time>2023-10-20T07:50:55.479Z</time>
      </trkpt>
      <trkpt lat="45.630086" lon="10.187339">
        <ele>317.277436</ele>
        <time>2023-10-20T07:51:09.245Z</time>
      </trkpt>
      <trkpt lat="45.630087" lon="10.187947">
        <ele>321.884956</ele>
        <time>2023-10-20T07:51:56.042Z</time>
      </trkpt>
      <trkpt lat="45.630088" lon="10.187961">
        <ele>321.991602</ele>
        <time>2023-10-20T07:51:57.226Z</time>
      </trkpt>
      <trkpt lat="45.629930" lon="10.188671">
        <ele>327.637960</ele>
        <time>2023-10-20T07:52:49.409Z</time>
      </trkpt>
      <trkpt lat="45.629886" lon="10.188763">
        <ele>328.482612</ele>
        <time>2023-10-20T07:52:55.585Z</time>
      </trkpt>
      <trkpt lat="45.629870" lon="10.188789">
        <ele>328.745073</ele>
        <time>2023-10-20T07:52:57.159Z</time>
      </trkpt>
      <trkpt lat="45.629828" lon="10.188701">
        <ele>329.552470</ele>
        <time>2023-10-20T07:53:04.475Z</time>
      </trkpt>
      <trkpt lat="45.629788" lon="10.188350">
        <ele>332.247499</ele>
        <time>2023-10-20T07:53:22.332Z</time>
      </trkpt>
      <trkpt lat="45.629791" lon="10.188188">
        <ele>333.475594</ele>
        <time>2023-10-20T07:53:29.088Z</time>
      </trkpt>
      <trkpt lat="45.629799" lon="10.187804">
        <ele>336.359716</ele>
        <time>2023-10-20T07:53:44.773Z</time>
      </trkpt>
      <trkpt lat="45.629722" lon="10.187459">
        <ele>338.917958</ele>
        <time>2023-10-20T07:54:04.920Z</time>
      </trkpt>
      <trkpt lat="45.629679" lon="10.187469">
        <ele>339.358043</ele>
        <time>2023-10-20T07:54:08.291Z</time>
      </trkpt>
      <trkpt lat="45.629669" lon="10.187499">
        <ele>339.592812</ele>
        <time>2023-10-20T07:54:10.166Z</time>
      </trkpt>
      <trkpt lat="45.629683" lon="10.187774">
        <ele>341.540591</ele>
        <time>2023-10-20T07:54:29.553Z</time>
      </trkpt>
      <trkpt lat="45.629598" lon="10.188008">
        <ele>343.403311</ele>
        <time>2023-10-20T07:54:46.289Z</time>
      </trkpt>
      <trkpt lat="45.629445" lon="10.188593">
        <ele>347.815410</ele>
        <time>2023-10-20T07:55:33.256Z</time>
      </trkpt>
      <trkpt lat="45.629408" lon="10.188741">
        <ele>348.925710</ele>
        <time>2023-10-20T07:55:41.703Z</time>
      </trkpt>
      <trkpt lat="45.629361" lon="10.188879">
        <ele>350.010037</ele>
        <time>2023-10-20T07:55:49.048Z</time>
      </trkpt>
      <trkpt lat="45.629308" lon="10.188921">
        <ele>350.622146</ele>
        <time>2023-10-20T07:55:53.025Z</time>
      </trkpt>
      <trkpt lat="45.629288" lon="10.188852">
        <ele>351.149788</ele>
        <time>2023-10-20T07:55:57.197Z</time>
      </trkpt>
      <trkpt lat="45.629304" lon="10.188746">
        <ele>351.915836</ele>
        <time>2023-10-20T07:56:02.490Z</time>
      </trkpt>
      <trkpt lat="45.629318" lon="10.188500">
        <ele>353.659370</ele>
        <time>2023-10-20T07:56:14.919Z</time>
      </trkpt>
      <trkpt lat="45.629322" lon="10.188425">
        <ele>354.190784</ele>
        <time>2023-10-20T07:56:18.497Z</time>
      </trkpt>
      <trkpt lat="45.629340" lon="10.188183">
        <ele>355.912993</ele>
        <time>2023-10-20T07:56:31.674Z</time>
      </trkpt>
      <trkpt lat="45.629340" lon="10.188172">
        <ele>355.990836</ele>
        <time>2023-10-20T07:56:32.286Z</time>
      </trkpt>
      <trkpt lat="45.629298" lon="10.187653">
        <ele>359.688127</ele>
        <time>2023-10-20T07:57:03.626Z</time>
      </trkpt>
      <trkpt lat="45.629260" lon="10.187520">
        <ele>360.704849</ele>
        <time>2023-10-20T07:57:13.069Z</time>
      </trkpt>
      <trkpt lat="45.629221" lon="10.187542">
        <ele>361.129112</ele>
        <time>2023-10-20T07:57:15.785Z</time>
      </trkpt>
      <trkpt lat="45.629188" lon="10.187828">
        <ele>363.180404</ele>
        <time>2023-10-20T07:57:31.347Z</time>
      </trkpt>
      <trkpt lat="45.629149" lon="10.187935">
        <ele>364.034288</ele>
        <time>2023-10-20T07:57:39.131Z</time>
      </trkpt>
      <trkpt lat="45.628807" lon="10.188427">
        <ele>368.943506</ele>
        <time>2023-10-20T07:58:19.812Z</time>
      </trkpt>
      <trkpt lat="45.628701" lon="10.188534">
        <ele>370.256523</ele>
        <time>2023-10-20T07:58:28.473Z</time>
      </trkpt>
      <trkpt lat="45.628653" lon="10.188517">
        <ele>370.756943</ele>
        <time>2023-10-20T07:58:32.579Z</time>
      </trkpt>
      <trkpt lat="45.628638" lon="10.188440">
        <ele>371.322599</ele>
        <time>2023-10-20T07:58:37.859Z</time>
      </trkpt>
      <trkpt lat="45.628666" lon="10.188362">
        <ele>371.943062</ele>
        <time>2023-10-20T07:58:41.899Z</time>
      </trkpt>
      <trkpt lat="45.628736" lon="10.188048">
        <ele>374.177538</ele>
        <time>2023-10-20T07:58:57.799Z</time>
      </trkpt>
      <trkpt lat="45.628710" lon="10.187969">
        <ele>374.763915</ele>
        <time>2023-10-20T07:59:03.639Z</time>
      </trkpt>
      <trkpt lat="45.628251" lon="10.188383">
        <ele>379.975617</ele>
        <time>2023-10-20T07:59:39.636Z</time>
      </trkpt>
      <trkpt lat="45.627671" lon="10.188587">
        <ele>385.711770</ele>
        <time>2023-10-20T08:00:34.430Z</time>
      </trkpt>
      <trkpt lat="45.627206" lon="10.188840">
        <ele>390.710494</ele>
        <time>2023-10-20T08:01:21.871Z</time>
      </trkpt>
      <trkpt lat="45.627120" lon="10.188849">
        <ele>391.751388</ele>
        <time>2023-10-20T08:01:29.234Z</time>
      </trkpt>
      <trkpt lat="45.627049" lon="10.188819">
        <ele>392.645071</ele>
        <time>2023-10-20T08:01:36.262Z</time>
      </trkpt>
      <trkpt lat="45.627063" lon="10.188705">
        <ele>393.622146</ele>
        <time>2023-10-20T08:01:45.517Z</time>
      </trkpt>
      <trkpt lat="45.627280" lon="10.188529">
        <ele>396.633595</ele>
        <time>2023-10-20T08:02:07.534Z</time>
      </trkpt>
      <trkpt lat="45.627617" lon="10.188048">
        <ele>402.381228</ele>
        <time>2023-10-20T08:02:53.410Z</time>
      </trkpt>
      <trkpt lat="45.628056" lon="10.187171">
        <ele>411.500011</ele>
        <time>2023-10-20T08:04:07.714Z</time>
      </trkpt>
      <trkpt lat="45.627988" lon="10.187130">
        <ele>412.480582</ele>
        <time>2023-10-20T08:04:15.595Z</time>
      </trkpt>
      <trkpt lat="45.627571" lon="10.187636">
        <ele>419.747442</ele>
        <time>2023-10-20T08:05:15.658Z</time>
      </trkpt>
      <trkpt lat="45.627300" lon="10.187807">
        <ele>423.683299</ele>
        <time>2023-10-20T08:05:48.153Z</time>
      </trkpt>
      <trkpt lat="45.627186" lon="10.187783">
        <ele>425.214381</ele>
        <time>2023-10-20T08:06:00.575Z</time>
      </trkpt>
      <trkpt lat="45.627378" lon="10.187570">
        <ele>428.443276</ele>
        <time>2023-10-20T08:06:25.175Z</time>
      </trkpt>
      <trkpt lat="45.627567" lon="10.187202">
        <ele>432.685864</ele>
        <time>2023-10-20T08:06:56.451Z</time>
      </trkpt>
      <trkpt lat="45.627746" lon="10.186667">
        <ele>438.125162</ele>
        <time>2023-10-20T08:07:36.962Z</time>
      </trkpt>
      <trkpt lat="45.627772" lon="10.186444">
        <ele>440.174971</ele>
        <time>2023-10-20T08:07:52.935Z</time>
      </trkpt>
      <trkpt lat="45.627797" lon="10.186183">
        <ele>442.563506</ele>
        <time>2023-10-20T08:08:11.901Z</time>
      </trkpt>
      <trkpt lat="45.627793" lon="10.186110">
        <ele>443.227412</ele>
        <time>2023-10-20T08:08:17.327Z</time>
      </trkpt>
      <trkpt lat="45.627763" lon="10.186053">
        <ele>443.874234</ele>
        <time>2023-10-20T08:08:22.529Z</time>
      </trkpt>
      <trkpt lat="45.627371" lon="10.186503">
        <ele>450.391722</ele>
        <time>2023-10-20T08:09:13.929Z</time>
      </trkpt>
      <trkpt lat="45.627314" lon="10.186505">
        <ele>451.130964</ele>
        <time>2023-10-20T08:09:20.207Z</time>
      </trkpt>
      <trkpt lat="45.627277" lon="10.186436">
        <ele>451.919330</ele>
        <time>2023-10-20T08:09:27.347Z</time>
      </trkpt>
      <trkpt lat="45.627449" lon="10.186073">
        <ele>455.894946</ele>
        <time>2023-10-20T08:09:57.950Z</time>
      </trkpt>
      <trkpt lat="45.627546" lon="10.185714">
        <ele>459.533703</ele>
        <time>2023-10-20T08:10:24.715Z</time>
      </trkpt>
      <trkpt lat="45.627503" lon="10.185635">
        <ele>460.605999</ele>
        <time>2023-10-20T08:10:32.115Z</time>
      </trkpt>
      <trkpt lat="45.627172" lon="10.186069">
        <ele>467.484494</ele>
        <time>2023-10-20T08:11:19.688Z</time>
      </trkpt>
      <trkpt lat="45.626980" lon="10.186169">
        <ele>470.614299</ele>
        <time>2023-10-20T08:11:41.545Z</time>
      </trkpt>
      <trkpt lat="45.626921" lon="10.186151">
        <ele>471.538324</ele>
        <time>2023-10-20T08:11:48.678Z</time>
      </trkpt>
      <trkpt lat="45.626961" lon="10.185942">
        <ele>473.859327</ele>
        <time>2023-10-20T08:12:07.977Z</time>
      </trkpt>
      <trkpt lat="45.627149" lon="10.185661">
        <ele>478.024807</ele>
        <time>2023-10-20T08:12:40.282Z</time>
      </trkpt>
      <trkpt lat="45.627285" lon="10.185352">
        <ele>481.935561</ele>
        <time>2023-10-20T08:13:08.543Z</time>
      </trkpt>
      <trkpt lat="45.627550" lon="10.183936">
        <ele>499.205095</ele>
        <time>2023-10-20T08:15:18.192Z</time>
      </trkpt>
      <trkpt lat="45.627532" lon="10.183887">
        <ele>499.878641</ele>
        <time>2023-10-20T08:15:23.717Z</time>
      </trkpt>
      <trkpt lat="45.627496" lon="10.183879">
        <ele>500.512606</ele>
        <time>2023-10-20T08:15:28.262Z</time>
      </trkpt>
      <trkpt lat="45.627225" lon="10.184270">
        <ele>507.211706</ele>
        <time>2023-10-20T08:16:18.139Z</time>
      </trkpt>
      <trkpt lat="45.627176" lon="10.184262">
        <ele>508.069908</ele>
        <time>2023-10-20T08:16:24.773Z</time>
      </trkpt>
      <trkpt lat="45.627168" lon="10.184210">
        <ele>508.717835</ele>
        <time>2023-10-20T08:16:29.648Z</time>
      </trkpt>
      <trkpt lat="45.627532" lon="10.183050">
        <ele>522.720375</ele>
        <time>2023-10-20T08:18:16.280Z</time>
      </trkpt>
      <trkpt lat="45.628017" lon="10.181786">
        <ele>536.462589</ele>
        <time>2023-10-20T08:20:06.030Z</time>
      </trkpt>
      <trkpt lat="45.628117" lon="10.181454">
        <ele>539.908086</ele>
        <time>2023-10-20T08:20:30.287Z</time>
      </trkpt>
      <trkpt lat="45.628184" lon="10.181324">
        <ele>541.447328</ele>
        <time>2023-10-20T08:20:40.286Z</time>
      </trkpt>
      <trkpt lat="45.628177" lon="10.181271">
        <ele>541.940881</ele>
        <time>2023-10-20T08:20:43.572Z</time>
      </trkpt>
      <trkpt lat="45.628141" lon="10.181258">
        <ele>542.164507</ele>
        <time>2023-10-20T08:20:46.825Z</time>
      </trkpt>
      <trkpt lat="45.627860" lon="10.181568">
        <ele>544.302016</ele>
        <time>2023-10-20T08:21:13.784Z</time>
      </trkpt>
      <trkpt lat="45.627752" lon="10.181623">
        <ele>544.992492</ele>
        <time>2023-10-20T08:21:21.769Z</time>
      </trkpt>
      <trkpt lat="45.627437" lon="10.181783">
        <ele>547.005794</ele>
        <time>2023-10-20T08:21:43.200Z</time>
      </trkpt>
      <trkpt lat="45.626997" lon="10.182206">
        <ele>550.199026</ele>
        <time>2023-10-20T08:22:13.531Z</time>
      </trkpt>
      <trkpt lat="45.626428" lon="10.182556">
        <ele>554.260862</ele>
        <time>2023-10-20T08:22:49.977Z</time>
      </trkpt>
      <trkpt lat="45.626277" lon="10.182496">
        <ele>555.471509</ele>
        <time>2023-10-20T08:22:58.861Z</time>
      </trkpt>
      <trkpt lat="45.625871" lon="10.181672">
        <ele>560.916855</ele>
        <time>2023-10-20T08:23:45.207Z</time>
      </trkpt>
      <trkpt lat="45.625905" lon="10.180901">
        <ele>565.090287</ele>
        <time>2023-10-20T08:24:30.934Z</time>
      </trkpt>
      <trkpt lat="45.625965" lon="10.180720">
        <ele>566.172387</ele>
        <time>2023-10-20T08:24:44.131Z</time>
      </trkpt>
      <trkpt lat="45.626122" lon="10.180954">
        <ele>569.437563</ele>
        <time>2023-10-20T08:25:08.040Z</time>
      </trkpt>
      <trkpt lat="45.626250" lon="10.181337">
        <ele>574.457752</ele>
        <time>2023-10-20T08:25:40.813Z</time>
      </trkpt>
      <trkpt lat="45.626322" lon="10.181449">
        <ele>576.256918</ele>
        <time>2023-10-20T08:25:53.035Z</time>
      </trkpt>
      <trkpt lat="45.626400" lon="10.181385">
        <ele>577.777708</ele>
        <time>2023-10-20T08:26:03.209Z</time>
      </trkpt>
      <trkpt lat="45.626393" lon="10.180632">
        <ele>586.683805</ele>
        <time>2023-10-20T08:27:08.266Z</time>
      </trkpt>
      <trkpt lat="45.626590" lon="10.180275">
        <ele>592.061931</ele>
        <time>2023-10-20T08:27:51.090Z</time>
      </trkpt>
      <trkpt lat="45.626718" lon="10.179759">
        <ele>599.318440</ele>
        <time>2023-10-20T08:28:46.419Z</time>
      </trkpt>
      <trkpt lat="45.626736" lon="10.179482">
        <ele>604.359564</ele>
        <time>2023-10-20T08:29:12.259Z</time>
      </trkpt>
      <trkpt lat="45.626737" lon="10.179458">
        <ele>604.795237</ele>
        <time>2023-10-20T08:29:14.503Z</time>
      </trkpt>
      <trkpt lat="45.626784" lon="10.179169">
        <ele>610.171928</ele>
        <time>2023-10-20T08:29:45.885Z</time>
      </trkpt>
      <trkpt lat="45.626767" lon="10.179105">
        <ele>611.412507</ele>
        <time>2023-10-20T08:29:52.882Z</time>
      </trkpt>
      <trkpt lat="45.626656" lon="10.178800">
        <ele>617.643005</ele>
        <time>2023-10-20T08:30:29.335Z</time>
      </trkpt>
      <trkpt lat="45.626575" lon="10.178392">
        <ele>625.328508</ele>
        <time>2023-10-20T08:31:14.510Z</time>
      </trkpt>
      <trkpt lat="45.626571" lon="10.178164">
        <ele>629.461393</ele>
        <time>2023-10-20T08:31:39.034Z</time>
      </trkpt>
      <trkpt lat="45.626526" lon="10.177809">
        <ele>635.999170</ele>
        <time>2023-10-20T08:32:17.636Z</time>
      </trkpt>
      <trkpt lat="45.626481" lon="10.177831">
        <ele>637.231471</ele>
        <time>2023-10-20T08:32:24.968Z</time>
      </trkpt>
      <trkpt lat="45.626273" lon="10.178113">
        <ele>644.838914</ele>
        <time>2023-10-20T08:33:08.933Z</time>
      </trkpt>
      <trkpt lat="45.626269" lon="10.177922">
        <ele>648.936225</ele>
        <time>2023-10-20T08:33:29.705Z</time>
      </trkpt>
      <trkpt lat="45.626368" lon="10.176971">
        <ele>669.552495</ele>
        <time>2023-10-20T08:35:13.731Z</time>
      </trkpt>
      <trkpt lat="45.626206" lon="10.175901">
        <ele>693.027236</ele>
        <time>2023-10-20T08:37:11.408Z</time>
      </trkpt>
      <trkpt lat="45.626019" lon="10.175190">
        <ele>705.785131</ele>
        <time>2023-10-20T08:38:32.675Z</time>
      </trkpt>
      <trkpt lat="45.625893" lon="10.174848">
        <ele>711.285158</ele>
        <time>2023-10-20T08:39:13.705Z</time>
      </trkpt>
      <trkpt lat="45.625882" lon="10.174713">
        <ele>713.218974</ele>
        <time>2023-10-20T08:39:28.055Z</time>
      </trkpt>
      <trkpt lat="45.625871" lon="10.174588">
        <ele>715.011539</ele>
        <time>2023-10-20T08:39:41.017Z</time>
      </trkpt>
      <trkpt lat="45.626031" lon="10.174039">
        <ele>723.474023</ele>
        <time>2023-10-20T08:40:38.493Z</time>
      </trkpt>
      <trkpt lat="45.626067" lon="10.173593">
        <ele>729.861961</ele>
        <time>2023-10-20T08:41:16.132Z</time>
      </trkpt>
      <trkpt lat="45.626042" lon="10.173385">
        <ele>732.864831</ele>
        <time>2023-10-20T08:41:31.820Z</time>
      </trkpt>
      <trkpt lat="45.626159" lon="10.172692">
        <ele>739.217777</ele>
        <time>2023-10-20T08:42:15.398Z</time>
      </trkpt>
      <trkpt lat="45.626213" lon="10.172621">
        <ele>739.965063</ele>
        <time>2023-10-20T08:42:21.269Z</time>
      </trkpt>
      <trkpt lat="45.626344" lon="10.172292">
        <ele>742.662138</ele>
        <time>2023-10-20T08:42:39.873Z</time>
      </trkpt>
      <trkpt lat="45.626497" lon="10.171591">
        <ele>747.893619</ele>
        <time>2023-10-20T08:43:18.199Z</time>
      </trkpt>
      <trkpt lat="45.626630" lon="10.171207">
        <ele>750.946348</ele>
        <time>2023-10-20T08:43:44.763Z</time>
      </trkpt>
      <trkpt lat="45.626832" lon="10.170995">
        <ele>753.498842</ele>
        <time>2023-10-20T08:44:09.418Z</time>
      </trkpt>
      <trkpt lat="45.627342" lon="10.170859">
        <ele>759.881658</ele>
        <time>2023-10-20T08:45:05.390Z</time>
      </trkpt>
      <trkpt lat="45.627372" lon="10.170781">
        <ele>760.653842</ele>
        <time>2023-10-20T08:45:12.186Z</time>
      </trkpt>
      <trkpt lat="45.627245" lon="10.170746">
        <ele>762.258145</ele>
        <time>2023-10-20T08:45:25.125Z</time>
      </trkpt>
      <trkpt lat="45.626827" lon="10.170523">
        <ele>767.792134</ele>
        <time>2023-10-20T08:46:07.299Z</time>
      </trkpt>
      <trkpt lat="45.626665" lon="10.170502">
        <ele>769.809829</ele>
        <time>2023-10-20T08:46:21.728Z</time>
      </trkpt>
      <trkpt lat="45.626500" lon="10.170634">
        <ele>772.155029</ele>
        <time>2023-10-20T08:46:40.099Z</time>
      </trkpt>
      <trkpt lat="45.626246" lon="10.170768">
        <ele>775.513245</ele>
        <time>2023-10-20T08:47:08.093Z</time>
      </trkpt>
      <trkpt lat="45.626196" lon="10.170716">
        <ele>776.243551</ele>
        <time>2023-10-20T08:47:14.982Z</time>
      </trkpt>
      <trkpt lat="45.626325" lon="10.170421">
        <ele>778.782625</ele>
        <time>2023-10-20T08:47:40.377Z</time>
      </trkpt>
      <trkpt lat="45.626549" lon="10.170075">
        <ele>782.223517</ele>
        <time>2023-10-20T08:48:15.341Z</time>
      </trkpt>
      <trkpt lat="45.626635" lon="10.169956">
        <ele>783.472344</ele>
        <time>2023-10-20T08:48:27.361Z</time>
      </trkpt>
      <trkpt lat="45.626882" lon="10.169801">
        <ele>786.287150</ele>
        <time>2023-10-20T08:48:52.664Z</time>
      </trkpt>
      <trkpt lat="45.626922" lon="10.169705">
        <ele>787.102653</ele>
        <time>2023-10-20T08:48:59.885Z</time>
      </trkpt>
      <trkpt lat="45.626973" lon="10.169482">
        <ele>788.814854</ele>
        <time>2023-10-20T08:49:13.608Z</time>
      </trkpt>
      <trkpt lat="45.626980" lon="10.169320">
        <ele>789.999336</ele>
        <time>2023-10-20T08:49:22.402Z</time>
      </trkpt>
      <trkpt lat="45.626966" lon="10.169192">
        <ele>790.944798</ele>
        <time>2023-10-20T08:49:29.409Z</time>
      </trkpt>
      <trkpt lat="45.626929" lon="10.169124">
        <ele>791.573556</ele>
        <time>2023-10-20T08:49:33.908Z</time>
      </trkpt>
      <trkpt lat="45.626854" lon="10.169149">
        <ele>792.377188</ele>
        <time>2023-10-20T08:49:38.252Z</time>
      </trkpt>
      <trkpt lat="45.626929" lon="10.169124">
        <ele>793.180821</ele>
        <time>2023-10-20T08:49:42.313Z</time>
      </trkpt>
      <trkpt lat="45.627012" lon="10.169088">
        <ele>794.085920</ele>
        <time>2023-10-20T08:49:46.907Z</time>
      </trkpt>
      <trkpt lat="45.627105" lon="10.168985">
        <ele>795.178528</ele>
        <time>2023-10-20T08:49:52.954Z</time>
      </trkpt>
      <trkpt lat="45.627342" lon="10.168633">
        <ele>797.771240</ele>
        <time>2023-10-20T08:50:10.648Z</time>
      </trkpt>
      <trkpt lat="45.627740" lon="10.168032">
        <ele>802.163140</ele>
        <time>2023-10-20T08:50:48.054Z</time>
      </trkpt>
      <trkpt lat="45.628007" lon="10.167808">
        <ele>804.511923</ele>
        <time>2023-10-20T08:51:07.033Z</time>
      </trkpt>
      <trkpt lat="45.628166" lon="10.167573">
        <ele>806.246925</ele>
        <time>2023-10-20T08:51:20.873Z</time>
      </trkpt>
      <trkpt lat="45.628436" lon="10.167283">
        <ele>808.735574</ele>
        <time>2023-10-20T08:51:41.442Z</time>
      </trkpt>
      <trkpt lat="45.628418" lon="10.166745">
        <ele>810.980773</ele>
        <time>2023-10-20T08:52:04.949Z</time>
      </trkpt>
      <trkpt lat="45.628596" lon="10.165998">
        <ele>814.270420</ele>
        <time>2023-10-20T08:52:33.734Z</time>
      </trkpt>
      <trkpt lat="45.629246" lon="10.164752">
        <ele>820.712378</ele>
        <time>2023-10-20T08:53:21.774Z</time>
      </trkpt>
      <trkpt lat="45.629382" lon="10.164588">
        <ele>821.747108</ele>
        <time>2023-10-20T08:53:32.727Z</time>
      </trkpt>
      <trkpt lat="45.629459" lon="10.164190">
        <ele>823.426720</ele>
        <time>2023-10-20T08:53:49.623Z</time>
      </trkpt>
      <trkpt lat="45.629524" lon="10.163986">
        <ele>824.338528</ele>
        <time>2023-10-20T08:53:58.531Z</time>
      </trkpt>
      <trkpt lat="45.629665" lon="10.163688">
        <ele>825.801973</ele>
        <time>2023-10-20T08:54:11.891Z</time>
      </trkpt>
      <trkpt lat="45.629711" lon="10.163652">
        <ele>826.106971</ele>
        <time>2023-10-20T08:54:14.976Z</time>
      </trkpt>
      <trkpt lat="45.629943" lon="10.163469">
        <ele>827.648030</ele>
        <time>2023-10-20T08:54:28.772Z</time>
      </trkpt>
      <trkpt lat="45.630016" lon="10.163412">
        <ele>828.131793</ele>
        <time>2023-10-20T08:54:33.043Z</time>
      </trkpt>
      <trkpt lat="45.630429" lon="10.163302">
        <ele>829.653678</ele>
        <time>2023-10-20T08:54:53.491Z</time>
      </trkpt>
      <trkpt lat="45.630762" lon="10.163183">
        <ele>829.663382</ele>
        <time>2023-10-20T08:55:08.053Z</time>
      </trkpt>
      <trkpt lat="45.630921" lon="10.163126">
        <ele>829.668017</ele>
        <time>2023-10-20T08:55:14.956Z</time>
      </trkpt>
      <trkpt lat="45.631113" lon="10.163151">
        <ele>829.673468</ele>
        <time>2023-10-20T08:55:23.530Z</time>
      </trkpt>
      <trkpt lat="45.631701" lon="10.163251">
        <ele>829.690210</ele>
        <time>2023-10-20T08:55:37.043Z</time>
      </trkpt>
      <trkpt lat="45.632359" lon="10.163531">
        <ele>825.697564</ele>
        <time>2023-10-20T08:55:47.028Z</time>
      </trkpt>
      <trkpt lat="45.632639" lon="10.163527">
        <ele>822.393340</ele>
        <time>2023-10-20T08:55:50.911Z</time>
      </trkpt>
      <trkpt lat="45.633061" lon="10.163377">
        <ele>817.262140</ele>
        <time>2023-10-20T08:55:56.791Z</time>
      </trkpt>
      <trkpt lat="45.633462" lon="10.163459">
        <ele>812.482127</ele>
        <time>2023-10-20T08:56:02.255Z</time>
      </trkpt>
      <trkpt lat="45.633921" lon="10.163266">
        <ele>807.498719</ele>
        <time>2023-10-20T08:56:08.825Z</time>
      </trkpt>
      <trkpt lat="45.634296" lon="10.162909">
        <ele>804.330332</ele>
        <time>2023-10-20T08:56:15.069Z</time>
      </trkpt>
      <trkpt lat="45.634350" lon="10.162750">
        <ele>803.461032</ele>
        <time>2023-10-20T08:56:16.812Z</time>
      </trkpt>
      <trkpt lat="45.634296" lon="10.162909">
        <ele>802.591733</ele>
        <time>2023-10-20T08:56:18.829Z</time>
      </trkpt>
      <trkpt lat="45.634350" lon="10.162750">
        <ele>801.722434</ele>
        <time>2023-10-20T08:56:20.577Z</time>
      </trkpt>
      <trkpt lat="45.634017" lon="10.162769">
        <ele>799.378502</ele>
        <time>2023-10-20T08:56:30.162Z</time>
      </trkpt>
      <trkpt lat="45.633584" lon="10.162726">
        <ele>796.325775</ele>
        <time>2023-10-20T08:56:43.654Z</time>
      </trkpt>
      <trkpt lat="45.632896" lon="10.162602">
        <ele>795.828654</ele>
        <time>2023-10-20T08:57:12.280Z</time>
      </trkpt>
      <trkpt lat="45.632473" lon="10.162499">
        <ele>795.830920</ele>
        <time>2023-10-20T08:57:33.015Z</time>
      </trkpt>
      <trkpt lat="45.632015" lon="10.162343">
        <ele>795.833405</ele>
        <time>2023-10-20T08:57:52.480Z</time>
      </trkpt>
      <trkpt lat="45.631776" lon="10.162182">
        <ele>795.834800</ele>
        <time>2023-10-20T08:58:01.913Z</time>
      </trkpt>
      <trkpt lat="45.631624" lon="10.162158">
        <ele>794.836266</ele>
        <time>2023-10-20T08:58:06.830Z</time>
      </trkpt>
      <trkpt lat="45.631478" lon="10.162178">
        <ele>793.795026</ele>
        <time>2023-10-20T08:58:11.447Z</time>
      </trkpt>
      <trkpt lat="45.631208" lon="10.162110">
        <ele>791.848720</ele>
        <time>2023-10-20T08:58:19.410Z</time>
      </trkpt>
      <trkpt lat="45.631033" lon="10.162150">
        <ele>790.590575</ele>
        <time>2023-10-20T08:58:24.355Z</time>
      </trkpt>
      <trkpt lat="45.630690" lon="10.162127">
        <ele>788.152845</ele>
        <time>2023-10-20T08:58:33.460Z</time>
      </trkpt>
      <trkpt lat="45.630386" lon="10.162203">
        <ele>785.961930</ele>
        <time>2023-10-20T08:58:41.366Z</time>
      </trkpt>
      <trkpt lat="45.630158" lon="10.162069">
        <ele>784.211924</ele>
        <time>2023-10-20T08:58:47.608Z</time>
      </trkpt>
      <trkpt lat="45.629962" lon="10.162069">
        <ele>782.801150</ele>
        <time>2023-10-20T08:58:52.591Z</time>
      </trkpt>
      <trkpt lat="45.629694" lon="10.161978">
        <ele>780.691687</ele>
        <time>2023-10-20T08:58:59.543Z</time>
      </trkpt>
      <trkpt lat="45.629493" lon="10.162019">
        <ele>779.136806</ele>
        <time>2023-10-20T08:59:04.722Z</time>
      </trkpt>
      <trkpt lat="45.629042" lon="10.162195">
        <ele>775.556656</ele>
        <time>2023-10-20T08:59:16.733Z</time>
      </trkpt>
      <trkpt lat="45.628795" lon="10.162493">
        <ele>773.081784</ele>
        <time>2023-10-20T08:59:25.694Z</time>
      </trkpt>
      <trkpt lat="45.628733" lon="10.162721">
        <ele>771.771681</ele>
        <time>2023-10-20T08:59:30.819Z</time>
      </trkpt>
      <trkpt lat="45.628633" lon="10.162840">
        <ele>770.775374</ele>
        <time>2023-10-20T08:59:34.531Z</time>
      </trkpt>
      <trkpt lat="45.628580" lon="10.163021">
        <ele>769.724494</ele>
        <time>2023-10-20T08:59:38.856Z</time>
      </trkpt>
      <trkpt lat="45.628547" lon="10.163322">
        <ele>769.242192</ele>
        <time>2023-10-20T08:59:45.295Z</time>
      </trkpt>
      <trkpt lat="45.628504" lon="10.163412">
        <ele>769.218225</ele>
        <time>2023-10-20T08:59:47.732Z</time>
      </trkpt>
      <trkpt lat="45.628391" lon="10.163424">
        <ele>769.182598</ele>
        <time>2023-10-20T08:59:51.740Z</time>
      </trkpt>
      <trkpt lat="45.628255" lon="10.163550">
        <ele>769.131645</ele>
        <time>2023-10-20T08:59:56.835Z</time>
      </trkpt>
      <trkpt lat="45.628259" lon="10.163734">
        <ele>769.091168</ele>
        <time>2023-10-20T09:00:01.176Z</time>
      </trkpt>
      <trkpt lat="45.628242" lon="10.163812">
        <ele>769.073204</ele>
        <time>2023-10-20T09:00:03.439Z</time>
      </trkpt>
      <trkpt lat="45.628264" lon="10.164000">
        <ele>769.031291</ele>
        <time>2023-10-20T09:00:07.868Z</time>
      </trkpt>
      <trkpt lat="45.628154" lon="10.164246">
        <ele>768.967088</ele>
        <time>2023-10-20T09:00:18.350Z</time>
      </trkpt>
      <trkpt lat="45.628185" lon="10.164544">
        <ele>768.900843</ele>
        <time>2023-10-20T09:00:24.629Z</time>
      </trkpt>
      <trkpt lat="45.628034" lon="10.164764">
        <ele>768.833062</ele>
        <time>2023-10-20T09:00:36.543Z</time>
      </trkpt>
      <trkpt lat="45.627521" lon="10.164934">
        <ele>768.811044</ele>
        <time>2023-10-20T09:01:03.101Z</time>
      </trkpt>
      <trkpt lat="45.627449" lon="10.164994">
        <ele>768.849276</ele>
        <time>2023-10-20T09:01:07.474Z</time>
      </trkpt>
      <trkpt lat="45.627254" lon="10.165176">
        <ele>768.956107</ele>
        <time>2023-10-20T09:01:20.260Z</time>
      </trkpt>
      <trkpt lat="45.627116" lon="10.165282">
        <ele>769.027973</ele>
        <time>2023-10-20T09:01:26.267Z</time>
      </trkpt>
      <trkpt lat="45.627116" lon="10.165282">
        <ele>769.027973</ele>
        <time>2023-10-20T09:01:26.507Z</time>
      </trkpt>
      <trkpt lat="45.627026" lon="10.165355">
        <ele>769.075443</ele>
        <time>2023-10-20T09:01:29.196Z</time>
      </trkpt>
      <trkpt lat="45.627050" lon="10.165436">
        <ele>769.103667</ele>
        <time>2023-10-20T09:01:31.315Z</time>
      </trkpt>
      <trkpt lat="45.627113" lon="10.165654">
        <ele>769.179345</ele>
        <time>2023-10-20T09:01:36.413Z</time>
      </trkpt>
      <trkpt lat="45.627161" lon="10.165820">
        <ele>769.236976</ele>
        <time>2023-10-20T09:01:40.465Z</time>
      </trkpt>
      <trkpt lat="45.627141" lon="10.166013">
        <ele>769.299573</ele>
        <time>2023-10-20T09:01:44.615Z</time>
      </trkpt>
      <trkpt lat="45.627075" lon="10.166261">
        <ele>769.384706</ele>
        <time>2023-10-20T09:01:51.291Z</time>
      </trkpt>
      <trkpt lat="45.626970" lon="10.166624">
        <ele>769.510738</ele>
        <time>2023-10-20T09:02:00.400Z</time>
      </trkpt>
      <trkpt lat="45.626868" lon="10.166803">
        <ele>769.731159</ele>
        <time>2023-10-20T09:02:08.326Z</time>
      </trkpt>
      <trkpt lat="45.626433" lon="10.167086">
        <ele>770.900229</ele>
        <time>2023-10-20T09:02:35.409Z</time>
      </trkpt>
      <trkpt lat="45.626327" lon="10.167201">
        <ele>771.225716</ele>
        <time>2023-10-20T09:02:43.871Z</time>
      </trkpt>
      <trkpt lat="45.626171" lon="10.167475">
        <ele>771.830157</ele>
        <time>2023-10-20T09:02:58.207Z</time>
      </trkpt>
      <trkpt lat="45.626079" lon="10.167759">
        <ele>772.365602</ele>
        <time>2023-10-20T09:03:09.809Z</time>
      </trkpt>
      <trkpt lat="45.626050" lon="10.168007">
        <ele>772.795757</ele>
        <time>2023-10-20T09:03:18.831Z</time>
      </trkpt>
      <trkpt lat="45.626052" lon="10.168259">
        <ele>773.226894</ele>
        <time>2023-10-20T09:03:27.935Z</time>
      </trkpt>
      <trkpt lat="45.626035" lon="10.168459">
        <ele>773.571561</ele>
        <time>2023-10-20T09:03:33.837Z</time>
      </trkpt>
      <trkpt lat="45.625548" lon="10.168900">
        <ele>773.092980</ele>
        <time>2023-10-20T09:03:57.173Z</time>
      </trkpt>
      <trkpt lat="45.625211" lon="10.169493">
        <ele>772.004878</ele>
        <time>2023-10-20T09:04:17.338Z</time>
      </trkpt>
      <trkpt lat="45.625121" lon="10.169724">
        <ele>771.628325</ele>
        <time>2023-10-20T09:04:23.674Z</time>
      </trkpt>
      <trkpt lat="45.624935" lon="10.169908">
        <ele>771.167785</ele>
        <time>2023-10-20T09:04:30.540Z</time>
      </trkpt>
      <trkpt lat="45.624849" lon="10.169949">
        <ele>770.983193</ele>
        <time>2023-10-20T09:04:33.184Z</time>
      </trkpt>
      <trkpt lat="45.624809" lon="10.169926">
        <ele>770.895406</ele>
        <time>2023-10-20T09:04:33.855Z</time>
      </trkpt>
      <trkpt lat="45.624589" lon="10.169699">
        <ele>770.342984</ele>
        <time>2023-10-20T09:04:41.471Z</time>
      </trkpt>
      <trkpt lat="45.624411" lon="10.169570">
        <ele>768.316129</ele>
        <time>2023-10-20T09:04:46.864Z</time>
      </trkpt>
      <trkpt lat="45.624143" lon="10.169665">
        <ele>765.164654</ele>
        <time>2023-10-20T09:04:54.116Z</time>
      </trkpt>
      <trkpt lat="45.623855" lon="10.169831">
        <ele>761.620476</ele>
        <time>2023-10-20T09:05:02.041Z</time>
      </trkpt>
      <trkpt lat="45.623690" lon="10.169860">
        <ele>759.723037</ele>
        <time>2023-10-20T09:05:06.166Z</time>
      </trkpt>
      <trkpt lat="45.623282" lon="10.169906">
        <ele>755.051780</ele>
        <time>2023-10-20T09:05:16.185Z</time>
      </trkpt>
      <trkpt lat="45.623183" lon="10.169892">
        <ele>753.916308</ele>
        <time>2023-10-20T09:05:18.609Z</time>
      </trkpt>
      <trkpt lat="45.622384" lon="10.169850">
        <ele>743.372099</ele>
        <time>2023-10-20T09:05:38.060Z</time>
      </trkpt>
      <trkpt lat="45.622343" lon="10.169860">
        <ele>742.761852</ele>
        <time>2023-10-20T09:05:39.084Z</time>
      </trkpt>
      <trkpt lat="45.622106" lon="10.169923">
        <ele>739.224970</ele>
        <time>2023-10-20T09:05:42.358Z</time>
      </trkpt>
      <trkpt lat="45.621642" lon="10.170019">
        <ele>732.346190</ele>
        <time>2023-10-20T09:05:53.706Z</time>
      </trkpt>
      <trkpt lat="45.621341" lon="10.170004">
        <ele>727.927192</ele>
        <time>2023-10-20T09:06:00.966Z</time>
      </trkpt>
      <trkpt lat="45.621311" lon="10.170015">
        <ele>727.472785</ele>
        <time>2023-10-20T09:06:01.379Z</time>
      </trkpt>
      <trkpt lat="45.621065" lon="10.170105">
        <ele>723.747152</ele>
        <time>2023-10-20T09:06:04.794Z</time>
      </trkpt>
      <trkpt lat="45.620862" lon="10.170408">
        <ele>720.216588</ele>
        <time>2023-10-20T09:06:08.753Z</time>
      </trkpt>
      <trkpt lat="45.620635" lon="10.170570">
        <ele>717.228753</ele>
        <time>2023-10-20T09:06:12.170Z</time>
      </trkpt>
      <trkpt lat="45.620177" lon="10.170620">
        <ele>711.819294</ele>
        <time>2023-10-20T09:06:18.417Z</time>
      </trkpt>
      <trkpt lat="45.619091" lon="10.171068">
        <ele>701.594853</ele>
        <time>2023-10-20T09:06:34.697Z</time>
      </trkpt>
      <trkpt lat="45.618952" lon="10.171086">
        <ele>701.330247</ele>
        <time>2023-10-20T09:06:36.836Z</time>
      </trkpt>
      <trkpt lat="45.618653" lon="10.171092">
        <ele>700.763324</ele>
        <time>2023-10-20T09:06:41.588Z</time>
      </trkpt>
      <trkpt lat="45.618354" lon="10.171130">
        <ele>700.194221</ele>
        <time>2023-10-20T09:06:51.213Z</time>
      </trkpt>
      <trkpt lat="45.618293" lon="10.171090">
        <ele>700.066989</ele>
        <time>2023-10-20T09:06:52.694Z</time>
      </trkpt>
      <trkpt lat="45.618341" lon="10.171006">
        <ele>699.923154</ele>
        <time>2023-10-20T09:06:54.339Z</time>
      </trkpt>
      <trkpt lat="45.618481" lon="10.170969">
        <ele>699.653234</ele>
        <time>2023-10-20T09:06:58.103Z</time>
      </trkpt>
      <trkpt lat="45.618543" lon="10.170939">
        <ele>699.529141</ele>
        <time>2023-10-20T09:07:00.230Z</time>
      </trkpt>
      <trkpt lat="45.618561" lon="10.170892">
        <ele>699.458086</ele>
        <time>2023-10-20T09:07:01.442Z</time>
      </trkpt>
      <trkpt lat="45.618378" lon="10.170765">
        <ele>699.072428</ele>
        <time>2023-10-20T09:07:10.428Z</time>
      </trkpt>
      <trkpt lat="45.618158" lon="10.170677">
        <ele>699.415322</ele>
        <time>2023-10-20T09:07:22.112Z</time>
      </trkpt>
      <trkpt lat="45.618072" lon="10.170598">
        <ele>700.312817</ele>
        <time>2023-10-20T09:07:27.561Z</time>
      </trkpt>
      <trkpt lat="45.617865" lon="10.170309">
        <ele>702.853066</ele>
        <time>2023-10-20T09:07:44.574Z</time>
      </trkpt>
      <trkpt lat="45.617792" lon="10.170252">
        <ele>703.583357</ele>
        <time>2023-10-20T09:07:49.244Z</time>
      </trkpt>
      <trkpt lat="45.617444" lon="10.170140">
        <ele>706.715230</ele>
        <time>2023-10-20T09:08:08.975Z</time>
      </trkpt>
      <trkpt lat="45.617404" lon="10.170098">
        <ele>707.150965</ele>
        <time>2023-10-20T09:08:12.144Z</time>
      </trkpt>
      <trkpt lat="45.617273" lon="10.170149">
        <ele>708.343015</ele>
        <time>2023-10-20T09:08:20.805Z</time>
      </trkpt>
      <trkpt lat="45.617206" lon="10.170180">
        <ele>708.961308</ele>
        <time>2023-10-20T09:08:27.049Z</time>
      </trkpt>
      <trkpt lat="45.617043" lon="10.170332">
        <ele>710.669950</ele>
        <time>2023-10-20T09:08:45.768Z</time>
      </trkpt>
      <trkpt lat="45.617012" lon="10.170406">
        <ele>711.199666</ele>
        <time>2023-10-20T09:08:51.636Z</time>
      </trkpt>
      <trkpt lat="45.617005" lon="10.170538">
        <ele>712.012622</ele>
        <time>2023-10-20T09:09:00.334Z</time>
      </trkpt>
      <trkpt lat="45.617038" lon="10.170623">
        <ele>712.609638</ele>
        <time>2023-10-20T09:09:06.652Z</time>
      </trkpt>
      <trkpt lat="45.617430" lon="10.170947">
        <ele>717.547676</ele>
        <time>2023-10-20T09:09:53.730Z</time>
      </trkpt>
      <trkpt lat="45.617562" lon="10.171207">
        <ele>720.462612</ele>
        <time>2023-10-20T09:10:17.871Z</time>
      </trkpt>
      <trkpt lat="45.617575" lon="10.171325">
        <ele>721.546437</ele>
        <time>2023-10-20T09:10:26.613Z</time>
      </trkpt>
      <trkpt lat="45.617488" lon="10.171338">
        <ele>722.681136</ele>
        <time>2023-10-20T09:10:36.690Z</time>
      </trkpt>
      <trkpt lat="45.617134" lon="10.171273">
        <ele>727.310894</ele>
        <time>2023-10-20T09:11:14.674Z</time>
      </trkpt>
      <trkpt lat="45.616465" lon="10.171292">
        <ele>735.990787</ele>
        <time>2023-10-20T09:12:21.165Z</time>
      </trkpt>
      <trkpt lat="45.616088" lon="10.171181">
        <ele>739.953086</ele>
        <time>2023-10-20T09:13:00.068Z</time>
      </trkpt>
      <trkpt lat="45.615606" lon="10.171124">
        <ele>744.129367</ele>
        <time>2023-10-20T09:13:46.972Z</time>
      </trkpt>
      <trkpt lat="45.614959" lon="10.170849">
        <ele>749.957887</ele>
        <time>2023-10-20T09:14:39.884Z</time>
      </trkpt>
      <trkpt lat="45.614490" lon="10.170533">
        <ele>753.370587</ele>
        <time>2023-10-20T09:15:11.112Z</time>
      </trkpt>
      <trkpt lat="45.614205" lon="10.170248">
        <ele>753.186307</ele>
        <time>2023-10-20T09:15:27.519Z</time>
      </trkpt>
      <trkpt lat="45.614107" lon="10.170229">
        <ele>753.133908</ele>
        <time>2023-10-20T09:15:31.323Z</time>
      </trkpt>
      <trkpt lat="45.613749" lon="10.170259">
        <ele>752.943899</ele>
        <time>2023-10-20T09:15:43.863Z</time>
      </trkpt>
      <trkpt lat="45.613273" lon="10.170220">
        <ele>752.691282</ele>
        <time>2023-10-20T09:15:58.921Z</time>
      </trkpt>
      <trkpt lat="45.612839" lon="10.170145">
        <ele>752.236598</ele>
        <time>2023-10-20T09:16:12.379Z</time>
      </trkpt>
      <trkpt lat="45.612697" lon="10.170179">
        <ele>751.286288</ele>
        <time>2023-10-20T09:16:16.774Z</time>
      </trkpt>
      <trkpt lat="45.612629" lon="10.170278">
        <ele>750.645687</ele>
        <time>2023-10-20T09:16:19.690Z</time>
      </trkpt>
      <trkpt lat="45.612622" lon="10.170405">
        <ele>750.057509</ele>
        <time>2023-10-20T09:16:22.371Z</time>
      </trkpt>
      <trkpt lat="45.612630" lon="10.170463">
        <ele>749.784566</ele>
        <time>2023-10-20T09:16:23.642Z</time>
      </trkpt>
      <trkpt lat="45.612576" lon="10.171247">
        <ele>746.147324</ele>
        <time>2023-10-20T09:16:39.338Z</time>
      </trkpt>
      <trkpt lat="45.612512" lon="10.171630">
        <ele>744.329251</ele>
        <time>2023-10-20T09:16:46.727Z</time>
      </trkpt>
      <trkpt lat="45.612241" lon="10.172261">
        <ele>740.910619</ele>
        <time>2023-10-20T09:17:00.241Z</time>
      </trkpt>
      <trkpt lat="45.612059" lon="10.172505">
        <ele>738.035143</ele>
        <time>2023-10-20T09:17:06.675Z</time>
      </trkpt>
      <trkpt lat="45.611838" lon="10.172607">
        <ele>735.100728</ele>
        <time>2023-10-20T09:17:12.569Z</time>
      </trkpt>
      <trkpt lat="45.611720" lon="10.172618">
        <ele>733.606550</ele>
        <time>2023-10-20T09:17:15.533Z</time>
      </trkpt>
      <trkpt lat="45.611621" lon="10.172628">
        <ele>732.352499</ele>
        <time>2023-10-20T09:17:18.030Z</time>
      </trkpt>
      <trkpt lat="45.611390" lon="10.172725">
        <ele>729.310339</ele>
        <time>2023-10-20T09:17:24.027Z</time>
      </trkpt>
      <trkpt lat="45.610991" lon="10.173167">
        <ele>722.932145</ele>
        <time>2023-10-20T09:17:36.455Z</time>
      </trkpt>
      <trkpt lat="45.610460" lon="10.173575">
        <ele>715.026716</ele>
        <time>2023-10-20T09:17:50.962Z</time>
      </trkpt>
      <trkpt lat="45.610354" lon="10.173681">
        <ele>713.208586</ele>
        <time>2023-10-20T09:17:54.057Z</time>
      </trkpt>
      <trkpt lat="45.610313" lon="10.173798">
        <ele>711.922011</ele>
        <time>2023-10-20T09:17:56.243Z</time>
      </trkpt>
      <trkpt lat="45.610294" lon="10.174049">
        <ele>709.439839</ele>
        <time>2023-10-20T09:18:00.522Z</time>
      </trkpt>
      <trkpt lat="45.610316" lon="10.174771">
        <ele>702.334592</ele>
        <time>2023-10-20T09:18:12.737Z</time>
      </trkpt>
      <trkpt lat="45.610413" lon="10.175070">
        <ele>699.094167</ele>
        <time>2023-10-20T09:18:18.427Z</time>
      </trkpt>
      <trkpt lat="45.610394" lon="10.175124">
        <ele>698.499879</ele>
        <time>2023-10-20T09:18:19.461Z</time>
      </trkpt>
      <trkpt lat="45.610268" lon="10.174996">
        <ele>696.327374</ele>
        <time>2023-10-20T09:18:23.271Z</time>
      </trkpt>
      <trkpt lat="45.609974" lon="10.174548">
        <ele>690.996451</ele>
        <time>2023-10-20T09:18:34.099Z</time>
      </trkpt>
      <trkpt lat="45.609842" lon="10.174238">
        <ele>688.521333</ele>
        <time>2023-10-20T09:18:40.508Z</time>
      </trkpt>
      <trkpt lat="45.609758" lon="10.173927">
        <ele>686.247655</ele>
        <time>2023-10-20T09:18:46.464Z</time>
      </trkpt>
      <trkpt lat="45.609732" lon="10.173713">
        <ele>684.766292</ele>
        <time>2023-10-20T09:18:50.269Z</time>
      </trkpt>
      <trkpt lat="45.609731" lon="10.173387">
        <ele>682.542899</ele>
        <time>2023-10-20T09:18:56.111Z</time>
      </trkpt>
      <trkpt lat="45.609786" lon="10.173096">
        <ele>680.487071</ele>
        <time>2023-10-20T09:19:01.524Z</time>
      </trkpt>
      <trkpt lat="45.609862" lon="10.172952">
        <ele>679.256809</ele>
        <time>2023-10-20T09:19:04.842Z</time>
      </trkpt>
      <trkpt lat="45.609999" lon="10.172777">
        <ele>677.465572</ele>
        <time>2023-10-20T09:19:09.790Z</time>
      </trkpt>
      <trkpt lat="45.610005" lon="10.172735">
        <ele>677.173215</ele>
        <time>2023-10-20T09:19:10.608Z</time>
      </trkpt>
      <trkpt lat="45.609943" lon="10.172750">
        <ele>676.560152</ele>
        <time>2023-10-20T09:19:12.345Z</time>
      </trkpt>
      <trkpt lat="45.609698" lon="10.172950">
        <ele>674.148436</ele>
        <time>2023-10-20T09:19:20.232Z</time>
      </trkpt>
      <trkpt lat="45.609521" lon="10.173197">
        <ele>672.387819</ele>
        <time>2023-10-20T09:19:27.186Z</time>
      </trkpt>
      <trkpt lat="45.609476" lon="10.173202">
        <ele>672.066553</ele>
        <time>2023-10-20T09:19:28.403Z</time>
      </trkpt>
      <trkpt lat="45.609462" lon="10.173153">
        <ele>671.803007</ele>
        <time>2023-10-20T09:19:29.436Z</time>
      </trkpt>
      <trkpt lat="45.609499" lon="10.172847">
        <ele>670.256776</ele>
        <time>2023-10-20T09:19:35.411Z</time>
      </trkpt>
      <trkpt lat="45.609681" lon="10.172361">
        <ele>667.511959</ele>
        <time>2023-10-20T09:19:45.731Z</time>
      </trkpt>
      <trkpt lat="45.609901" lon="10.171872">
        <ele>664.617063</ele>
        <time>2023-10-20T09:19:56.787Z</time>
      </trkpt>
      <trkpt lat="45.609903" lon="10.171731">
        <ele>663.914856</ele>
        <time>2023-10-20T09:19:59.479Z</time>
      </trkpt>
      <trkpt lat="45.609851" lon="10.171663">
        <ele>663.413227</ele>
        <time>2023-10-20T09:20:01.395Z</time>
      </trkpt>
      <trkpt lat="45.609739" lon="10.171622">
        <ele>662.590312</ele>
        <time>2023-10-20T09:20:04.568Z</time>
      </trkpt>
      <trkpt lat="45.609210" lon="10.171710">
        <ele>657.361763</ele>
        <time>2023-10-20T09:20:19.068Z</time>
      </trkpt>
      <trkpt lat="45.609076" lon="10.171646">
        <ele>655.938647</ele>
        <time>2023-10-20T09:20:22.874Z</time>
      </trkpt>
      <trkpt lat="45.608965" lon="10.171539">
        <ele>654.590087</ele>
        <time>2023-10-20T09:20:26.404Z</time>
      </trkpt>
      <trkpt lat="45.608910" lon="10.171492">
        <ele>653.944632</ele>
        <time>2023-10-20T09:20:28.067Z</time>
      </trkpt>
      <trkpt lat="45.608806" lon="10.171259">
        <ele>651.997050</ele>
        <time>2023-10-20T09:20:33.057Z</time>
      </trkpt>
      <trkpt lat="45.608793" lon="10.170992">
        <ele>650.111072</ele>
        <time>2023-10-20T09:20:37.756Z</time>
      </trkpt>
      <trkpt lat="45.608945" lon="10.169663">
        <ele>639.485287</ele>
        <time>2023-10-20T09:21:00.982Z</time>
      </trkpt>
      <trkpt lat="45.608896" lon="10.168684">
        <ele>630.337973</ele>
        <time>2023-10-20T09:21:17.984Z</time>
      </trkpt>
      <trkpt lat="45.608832" lon="10.168510">
        <ele>628.505851</ele>
        <time>2023-10-20T09:21:21.354Z</time>
      </trkpt>
      <trkpt lat="45.608758" lon="10.168822">
        <ele>625.435518</ele>
        <time>2023-10-20T09:21:27.022Z</time>
      </trkpt>
      <trkpt lat="45.608646" lon="10.169020">
        <ele>623.062429</ele>
        <time>2023-10-20T09:21:31.376Z</time>
      </trkpt>
      <trkpt lat="45.608610" lon="10.169256">
        <ele>620.811284</ele>
        <time>2023-10-20T09:21:35.522Z</time>
      </trkpt>
      <trkpt lat="45.608552" lon="10.169412">
        <ele>619.090866</ele>
        <time>2023-10-20T09:21:38.544Z</time>
      </trkpt>
      <trkpt lat="45.608353" lon="10.169803">
        <ele>614.257142</ele>
        <time>2023-10-20T09:21:46.768Z</time>
      </trkpt>
      <trkpt lat="45.608025" lon="10.170332">
        <ele>607.190643</ele>
        <time>2023-10-20T09:21:58.784Z</time>
      </trkpt>
      <trkpt lat="45.607456" lon="10.171114">
        <ele>595.911104</ele>
        <time>2023-10-20T09:22:18.060Z</time>
      </trkpt>
      <trkpt lat="45.607238" lon="10.171358">
        <ele>591.718060</ele>
        <time>2023-10-20T09:22:24.802Z</time>
      </trkpt>
      <trkpt lat="45.607122" lon="10.171525">
        <ele>589.145155</ele>
        <time>2023-10-20T09:22:28.764Z</time>
      </trkpt>
      <trkpt lat="45.606969" lon="10.172027">
        <ele>583.158624</ele>
        <time>2023-10-20T09:22:38.013Z</time>
      </trkpt>
      <trkpt lat="45.606909" lon="10.172589">
        <ele>576.943209</ele>
        <time>2023-10-20T09:22:47.616Z</time>
      </trkpt>
      <trkpt lat="45.606902" lon="10.173209">
        <ele>570.163936</ele>
        <time>2023-10-20T09:22:57.993Z</time>
      </trkpt>
      <trkpt lat="45.606888" lon="10.173327">
        <ele>568.855434</ele>
        <time>2023-10-20T09:22:59.961Z</time>
      </trkpt>
      <trkpt lat="45.606890" lon="10.173418">
        <ele>567.860050</ele>
        <time>2023-10-20T09:23:01.472Z</time>
      </trkpt>
      <trkpt lat="45.606958" lon="10.173638">
        <ele>565.114598</ele>
        <time>2023-10-20T09:23:05.495Z</time>
      </trkpt>
      <trkpt lat="45.606951" lon="10.173712">
        <ele>564.215251</ele>
        <time>2023-10-20T09:23:06.741Z</time>
      </trkpt>
      <trkpt lat="45.606760" lon="10.173812">
        <ele>560.713420</ele>
        <time>2023-10-20T09:23:11.558Z</time>
      </trkpt>
      <trkpt lat="45.606570" lon="10.173863">
        <ele>557.385258</ele>
        <time>2023-10-20T09:23:16.159Z</time>
      </trkpt>
      <trkpt lat="45.606504" lon="10.173837">
        <ele>556.206659</ele>
        <time>2023-10-20T09:23:17.802Z</time>
      </trkpt>
      <trkpt lat="45.606428" lon="10.173748">
        <ele>554.515248</ele>
        <time>2023-10-20T09:23:20.142Z</time>
      </trkpt>
      <trkpt lat="45.606255" lon="10.173664">
        <ele>551.369789</ele>
        <time>2023-10-20T09:23:24.499Z</time>
      </trkpt>
      <trkpt lat="45.606130" lon="10.173679">
        <ele>549.210251</ele>
        <time>2023-10-20T09:23:27.472Z</time>
      </trkpt>
      <trkpt lat="45.605761" lon="10.173223">
        <ele>540.812744</ele>
        <time>2023-10-20T09:23:39.012Z</time>
      </trkpt>
      <trkpt lat="45.605711" lon="10.173145">
        <ele>539.538583</ele>
        <time>2023-10-20T09:23:40.728Z</time>
      </trkpt>
      <trkpt lat="45.605577" lon="10.172846">
        <ele>535.293009</ele>
        <time>2023-10-20T09:23:46.653Z</time>
      </trkpt>
      <trkpt lat="45.605502" lon="10.172897">
        <ele>534.171253</ele>
        <time>2023-10-20T09:23:48.593Z</time>
      </trkpt>
      <trkpt lat="45.605453" lon="10.172997">
        <ele>533.017644</ele>
        <time>2023-10-20T09:23:50.616Z</time>
      </trkpt>
      <trkpt lat="45.605441" lon="10.173151">
        <ele>531.553509</ele>
        <time>2023-10-20T09:23:53.229Z</time>
      </trkpt>
      <trkpt lat="45.605396" lon="10.173288">
        <ele>530.123423</ele>
        <time>2023-10-20T09:23:55.778Z</time>
      </trkpt>
      <trkpt lat="45.605369" lon="10.173322">
        <ele>529.637424</ele>
        <time>2023-10-20T09:23:56.620Z</time>
      </trkpt>
      <trkpt lat="45.605200" lon="10.173329">
        <ele>527.353902</ele>
        <time>2023-10-20T09:24:00.620Z</time>
      </trkpt>
      <trkpt lat="45.605027" lon="10.173211">
        <ele>524.764919</ele>
        <time>2023-10-20T09:24:05.275Z</time>
      </trkpt>
      <trkpt lat="45.604831" lon="10.173025">
        <ele>521.587385</ele>
        <time>2023-10-20T09:24:11.018Z</time>
      </trkpt>
      <trkpt lat="45.604658" lon="10.173027">
        <ele>519.250720</ele>
        <time>2023-10-20T09:24:15.307Z</time>
      </trkpt>
      <trkpt lat="45.604613" lon="10.172944">
        <ele>518.258507</ele>
        <time>2023-10-20T09:24:17.153Z</time>
      </trkpt>
      <trkpt lat="45.604630" lon="10.172878">
        <ele>517.593943</ele>
        <time>2023-10-20T09:24:18.421Z</time>
      </trkpt>
      <trkpt lat="45.604737" lon="10.172773">
        <ele>515.840976</ele>
        <time>2023-10-20T09:24:21.883Z</time>
      </trkpt>
      <trkpt lat="45.604740" lon="10.172725">
        <ele>515.385615</ele>
        <time>2023-10-20T09:24:22.746Z</time>
      </trkpt>
      <trkpt lat="45.604685" lon="10.172657">
        <ele>514.403437</ele>
        <time>2023-10-20T09:24:24.559Z</time>
      </trkpt>
      <trkpt lat="45.604546" lon="10.172602">
        <ele>512.455458</ele>
        <time>2023-10-20T09:24:28.383Z</time>
      </trkpt>
      <trkpt lat="45.604253" lon="10.172580">
        <ele>508.724089</ele>
        <time>2023-10-20T09:24:36.043Z</time>
      </trkpt>
      <trkpt lat="45.603902" lon="10.172617">
        <ele>504.390294</ele>
        <time>2023-10-20T09:24:45.281Z</time>
      </trkpt>
      <trkpt lat="45.603741" lon="10.172625">
        <ele>502.406614</ele>
        <time>2023-10-20T09:24:49.596Z</time>
      </trkpt>
      <trkpt lat="45.603322" lon="10.172509">
        <ele>497.151347</ele>
        <time>2023-10-20T09:25:00.558Z</time>
      </trkpt>
      <trkpt lat="45.603043" lon="10.172358">
        <ele>493.477830</ele>
        <time>2023-10-20T09:25:07.913Z</time>
      </trkpt>
      <trkpt lat="45.602511" lon="10.171980">
        <ele>483.518723</ele>
        <time>2023-10-20T09:25:22.013Z</time>
      </trkpt>
      <trkpt lat="45.602113" lon="10.171533">
        <ele>471.408604</ele>
        <time>2023-10-20T09:25:33.703Z</time>
      </trkpt>
      <trkpt lat="45.601652" lon="10.170846">
        <ele>455.474700</ele>
        <time>2023-10-20T09:25:49.175Z</time>
      </trkpt>
      <trkpt lat="45.601593" lon="10.170775">
        <ele>453.629437</ele>
        <time>2023-10-20T09:25:50.981Z</time>
      </trkpt>
      <trkpt lat="45.601403" lon="10.170681">
        <ele>448.819070</ele>
        <time>2023-10-20T09:25:55.635Z</time>
      </trkpt>
      <trkpt lat="45.601263" lon="10.170698">
        <ele>445.534893</ele>
        <time>2023-10-20T09:25:58.891Z</time>
      </trkpt>
      <trkpt lat="45.601143" lon="10.170749">
        <ele>443.027031</ele>
        <time>2023-10-20T09:26:01.791Z</time>
      </trkpt>
      <trkpt lat="45.601050" lon="10.170870">
        <ele>440.507777</ele>
        <time>2023-10-20T09:26:04.687Z</time>
      </trkpt>
      <trkpt lat="45.600974" lon="10.171060">
        <ele>437.440369</ele>
        <time>2023-10-20T09:26:08.220Z</time>
      </trkpt>
      <trkpt lat="45.600943" lon="10.171171">
        <ele>435.765294</ele>
        <time>2023-10-20T09:26:09.306Z</time>
      </trkpt>
      <trkpt lat="45.600914" lon="10.171276">
        <ele>434.183161</ele>
        <time>2023-10-20T09:26:11.138Z</time>
      </trkpt>
      <trkpt lat="45.600909" lon="10.171825">
        <ele>426.488031</ele>
        <time>2023-10-20T09:26:16.132Z</time>
      </trkpt>
      <trkpt lat="45.600873" lon="10.172301">
        <ele>419.777814</ele>
        <time>2023-10-20T09:26:20.529Z</time>
      </trkpt>
      <trkpt lat="45.600760" lon="10.172867">
        <ele>411.528416</ele>
        <time>2023-10-20T09:26:26.016Z</time>
      </trkpt>
      <trkpt lat="45.600598" lon="10.173319">
        <ele>406.599853</ele>
        <time>2023-10-20T09:26:30.915Z</time>
      </trkpt>
      <trkpt lat="45.600269" lon="10.174265">
        <ele>397.695648</ele>
        <time>2023-10-20T09:26:41.563Z</time>
      </trkpt>
      <trkpt lat="45.600208" lon="10.174595">
        <ele>394.818755</ele>
        <time>2023-10-20T09:26:44.835Z</time>
      </trkpt>
      <trkpt lat="45.600205" lon="10.174767">
        <ele>393.368575</ele>
        <time>2023-10-20T09:26:46.526Z</time>
      </trkpt>
      <trkpt lat="45.600239" lon="10.174976">
        <ele>391.559994</ele>
        <time>2023-10-20T09:26:48.543Z</time>
      </trkpt>
      <trkpt lat="45.600264" lon="10.175127">
        <ele>390.252119</ele>
        <time>2023-10-20T09:26:50.021Z</time>
      </trkpt>
      <trkpt lat="45.600370" lon="10.175399">
        <ele>387.637881</ele>
        <time>2023-10-20T09:26:52.982Z</time>
      </trkpt>
      <trkpt lat="45.600545" lon="10.175709">
        <ele>384.335858</ele>
        <time>2023-10-20T09:26:56.807Z</time>
      </trkpt>
      <trkpt lat="45.600538" lon="10.175764">
        <ele>383.872437</ele>
        <time>2023-10-20T09:26:57.341Z</time>
      </trkpt>
      <trkpt lat="45.600491" lon="10.175786">
        <ele>383.286459</ele>
        <time>2023-10-20T09:26:57.992Z</time>
      </trkpt>
      <trkpt lat="45.600433" lon="10.175724">
        <ele>382.428312</ele>
        <time>2023-10-20T09:26:58.985Z</time>
      </trkpt>
      <trkpt lat="45.600032" lon="10.175116">
        <ele>375.501710</ele>
        <time>2023-10-20T09:27:07.179Z</time>
      </trkpt>
      <trkpt lat="45.599942" lon="10.174942">
        <ele>373.707903</ele>
        <time>2023-10-20T09:27:09.267Z</time>
      </trkpt>
      <trkpt lat="45.599873" lon="10.174625">
        <ele>370.955774</ele>
        <time>2023-10-20T09:27:12.584Z</time>
      </trkpt>
      <trkpt lat="45.599860" lon="10.174157">
        <ele>367.073044</ele>
        <time>2023-10-20T09:27:17.180Z</time>
      </trkpt>
      <trkpt lat="45.599994" lon="10.172453">
        <ele>352.599694</ele>
        <time>2023-10-20T09:27:33.674Z</time>
      </trkpt>
      <trkpt lat="45.599973" lon="10.172064">
        <ele>349.305919</ele>
        <time>2023-10-20T09:27:37.476Z</time>
      </trkpt>
      <trkpt lat="45.599828" lon="10.171350">
        <ele>342.974251</ele>
        <time>2023-10-20T09:27:44.693Z</time>
      </trkpt>
      <trkpt lat="45.599791" lon="10.171072">
        <ele>340.525112</ele>
        <time>2023-10-20T09:27:47.430Z</time>
      </trkpt>
      <trkpt lat="45.599715" lon="10.169834">
        <ele>329.769471</ele>
        <time>2023-10-20T09:27:59.374Z</time>
      </trkpt>
      <trkpt lat="45.599737" lon="10.168184">
        <ele>315.936550</ele>
        <time>2023-10-20T09:28:15.285Z</time>
      </trkpt>
      <trkpt lat="45.599796" lon="10.167518">
        <ele>310.475691</ele>
        <time>2023-10-20T09:28:21.812Z</time>
      </trkpt>
      <trkpt lat="45.599856" lon="10.167309">
        <ele>308.638025</ele>
        <time>2023-10-20T09:28:24.068Z</time>
      </trkpt>
      <trkpt lat="45.599823" lon="10.167224">
        <ele>307.847276</ele>
        <time>2023-10-20T09:28:24.991Z</time>
      </trkpt>
      <trkpt lat="45.599775" lon="10.167261">
        <ele>307.213223</ele>
        <time>2023-10-20T09:28:25.736Z</time>
      </trkpt>
      <trkpt lat="45.599746" lon="10.167335">
        <ele>306.523274</ele>
        <time>2023-10-20T09:28:26.565Z</time>
      </trkpt>
      <trkpt lat="45.599547" lon="10.168110">
        <ele>300.114317</ele>
        <time>2023-10-20T09:28:34.674Z</time>
      </trkpt>
      <trkpt lat="45.599138" lon="10.169305">
        <ele>290.764712</ele>
        <time>2023-10-20T09:28:47.672Z</time>
      </trkpt>
      <trkpt lat="45.598990" lon="10.170086">
        <ele>285.077964</ele>
        <time>2023-10-20T09:28:55.757Z</time>
      </trkpt>
      <trkpt lat="45.598820" lon="10.171169">
        <ele>282.365478</ele>
        <time>2023-10-20T09:29:07.529Z</time>
      </trkpt>
      <trkpt lat="45.598715" lon="10.172027">
        <ele>280.881390</ele>
        <time>2023-10-20T09:29:18.390Z</time>
      </trkpt>
      <trkpt lat="45.598663" lon="10.172206">
        <ele>280.551159</ele>
        <time>2023-10-20T09:29:22.117Z</time>
      </trkpt>
      <trkpt lat="45.598420" lon="10.172794">
        <ele>280.295572</ele>
        <time>2023-10-20T09:29:39.897Z</time>
      </trkpt>
      <trkpt lat="45.598301" lon="10.173276">
        <ele>282.921177</ele>
        <time>2023-10-20T09:29:58.132Z</time>
      </trkpt>
      <trkpt lat="45.598273" lon="10.173324">
        <ele>283.242201</ele>
        <time>2023-10-20T09:30:00.363Z</time>
      </trkpt>
      <trkpt lat="45.598245" lon="10.173305">
        <ele>283.469763</ele>
        <time>2023-10-20T09:30:01.540Z</time>
      </trkpt>
      <trkpt lat="45.598201" lon="10.173660">
        <ele>285.321758</ele>
        <time>2023-10-20T09:30:19.994Z</time>
      </trkpt>
      <trkpt lat="45.598247" lon="10.174052">
        <ele>287.363551</ele>
        <time>2023-10-20T09:30:40.248Z</time>
      </trkpt>
      <trkpt lat="45.598144" lon="10.174524">
        <ele>289.903362</ele>
        <time>2023-10-20T09:31:09.730Z</time>
      </trkpt>
      <trkpt lat="45.598099" lon="10.175230">
        <ele>293.765821</ele>
        <time>2023-10-20T09:31:54.737Z</time>
      </trkpt>
      <trkpt lat="45.598048" lon="10.175393">
        <ele>294.961924</ele>
        <time>2023-10-20T09:32:06.259Z</time>
      </trkpt>
      <trkpt lat="45.597972" lon="10.175500">
        <ele>295.983294</ele>
        <time>2023-10-20T09:32:15.009Z</time>
      </trkpt>
      <trkpt lat="45.597870" lon="10.175313">
        <ele>297.571640</ele>
        <time>2023-10-20T09:32:29.226Z</time>
      </trkpt>
      <trkpt lat="45.597617" lon="10.175088">
        <ele>300.424515</ele>
        <time>2023-10-20T09:32:55.231Z</time>
      </trkpt>
      <trkpt lat="45.597280" lon="10.175266">
        <ele>303.864235</ele>
        <time>2023-10-20T09:33:19.591Z</time>
      </trkpt>
      <trkpt lat="45.597222" lon="10.175315">
        <ele>304.509287</ele>
        <time>2023-10-20T09:33:24.276Z</time>
      </trkpt>
      <trkpt lat="45.597204" lon="10.175395">
        <ele>305.072226</ele>
        <time>2023-10-20T09:33:28.904Z</time>
      </trkpt>
      <trkpt lat="45.597249" lon="10.175483">
        <ele>305.802381</ele>
        <time>2023-10-20T09:33:33.926Z</time>
      </trkpt>
      <trkpt lat="45.597685" lon="10.175802">
        <ele>310.694996</ele>
        <time>2023-10-20T09:34:01.545Z</time>
      </trkpt>
      <trkpt lat="45.597758" lon="10.175886">
        <ele>311.994929</ele>
        <time>2023-10-20T09:34:08.328Z</time>
      </trkpt>
      <trkpt lat="45.597806" lon="10.176003">
        <ele>313.311209</ele>
        <time>2023-10-20T09:34:16.524Z</time>
      </trkpt>
      <trkpt lat="45.597839" lon="10.176132">
        <ele>314.644205</ele>
        <time>2023-10-20T09:34:23.949Z</time>
      </trkpt>
      <trkpt lat="45.597958" lon="10.177106">
        <ele>324.239893</ele>
        <time>2023-10-20T09:35:27.105Z</time>
      </trkpt>
      <trkpt lat="45.597970" lon="10.177251">
        <ele>325.656925</ele>
        <time>2023-10-20T09:35:35.483Z</time>
      </trkpt>
      <trkpt lat="45.597778" lon="10.176700">
        <ele>331.630824</ele>
        <time>2023-10-20T09:36:21.077Z</time>
      </trkpt>
      <trkpt lat="45.597707" lon="10.176584">
        <ele>333.126557</ele>
        <time>2023-10-20T09:36:33.977Z</time>
      </trkpt>
      <trkpt lat="45.597594" lon="10.176550">
        <ele>334.728272</ele>
        <time>2023-10-20T09:36:47.681Z</time>
      </trkpt>
      <trkpt lat="45.597474" lon="10.176561">
        <ele>336.472878</ele>
        <time>2023-10-20T09:36:59.928Z</time>
      </trkpt>
      <trkpt lat="45.597069" lon="10.176720">
        <ele>342.615732</ele>
        <time>2023-10-20T09:37:45.452Z</time>
      </trkpt>
      <trkpt lat="45.596766" lon="10.176710">
        <ele>347.048519</ele>
        <time>2023-10-20T09:38:16.808Z</time>
      </trkpt>
      <trkpt lat="45.596614" lon="10.176602">
        <ele>349.531220</ele>
        <time>2023-10-20T09:38:34.867Z</time>
      </trkpt>
      <trkpt lat="45.596418" lon="10.176341">
        <ele>353.449377</ele>
        <time>2023-10-20T09:39:00.521Z</time>
      </trkpt>
      <trkpt lat="45.596295" lon="10.176235">
        <ele>355.550100</ele>
        <time>2023-10-20T09:39:14.072Z</time>
      </trkpt>
      <trkpt lat="45.595756" lon="10.176066">
        <ele>362.278898</ele>
        <time>2023-10-20T09:39:57.395Z</time>
      </trkpt>
      <trkpt lat="45.595702" lon="10.175942">
        <ele>362.911720</ele>
        <time>2023-10-20T09:40:04.204Z</time>
      </trkpt>
      <trkpt lat="45.595728" lon="10.175350">
        <ele>365.481780</ele>
        <time>2023-10-20T09:40:28.213Z</time>
      </trkpt>
      <trkpt lat="45.595693" lon="10.175209">
        <ele>366.130007</ele>
        <time>2023-10-20T09:40:33.053Z</time>
      </trkpt>
      <trkpt lat="45.595560" lon="10.175035">
        <ele>367.246534</ele>
        <time>2023-10-20T09:40:40.661Z</time>
      </trkpt>
      <trkpt lat="45.595303" lon="10.174779">
        <ele>369.186346</ele>
        <time>2023-10-20T09:40:52.528Z</time>
      </trkpt>
      <trkpt lat="45.595228" lon="10.174769">
        <ele>369.652779</ele>
        <time>2023-10-20T09:40:54.863Z</time>
      </trkpt>
      <trkpt lat="45.595199" lon="10.174823">
        <ele>369.947720</ele>
        <time>2023-10-20T09:40:56.698Z</time>
      </trkpt>
      <trkpt lat="45.595217" lon="10.174910">
        <ele>370.340809</ele>
        <time>2023-10-20T09:41:00.030Z</time>
      </trkpt>
      <trkpt lat="45.595362" lon="10.175244">
        <ele>372.043881</ele>
        <time>2023-10-20T09:41:13.384Z</time>
      </trkpt>
      <trkpt lat="45.595377" lon="10.175333">
        <ele>372.435083</ele>
        <time>2023-10-20T09:41:16.943Z</time>
      </trkpt>
      <trkpt lat="45.595098" lon="10.175887">
        <ele>373.676408</ele>
        <time>2023-10-20T09:41:38.377Z</time>
      </trkpt>
      <trkpt lat="45.595100" lon="10.176504">
        <ele>374.798503</ele>
        <time>2023-10-20T09:41:56.275Z</time>
      </trkpt>
      <trkpt lat="45.595156" lon="10.176647">
        <ele>375.096523</ele>
        <time>2023-10-20T09:41:59.426Z</time>
      </trkpt>
      <trkpt lat="45.595281" lon="10.176829">
        <ele>375.560310</ele>
        <time>2023-10-20T09:42:05.407Z</time>
      </trkpt>
      <trkpt lat="45.595477" lon="10.176993">
        <ele>376.150610</ele>
        <time>2023-10-20T09:42:13.245Z</time>
      </trkpt>
      <trkpt lat="45.595700" lon="10.177159">
        <ele>376.804104</ele>
        <time>2023-10-20T09:42:18.865Z</time>
      </trkpt>
      <trkpt lat="45.595729" lon="10.177205">
        <ele>376.916706</ele>
        <time>2023-10-20T09:42:20.078Z</time>
      </trkpt>
      <trkpt lat="45.595726" lon="10.177245">
        <ele>376.989866</ele>
        <time>2023-10-20T09:42:20.879Z</time>
      </trkpt>
      <trkpt lat="45.595381" lon="10.177973">
        <ele>374.873781</ele>
        <time>2023-10-20T09:42:33.685Z</time>
      </trkpt>
      <trkpt lat="45.595238" lon="10.178184">
        <ele>374.069723</ele>
        <time>2023-10-20T09:42:37.480Z</time>
      </trkpt>
      <trkpt lat="45.595120" lon="10.178293">
        <ele>373.520087</ele>
        <time>2023-10-20T09:42:39.707Z</time>
      </trkpt>
      <trkpt lat="45.595088" lon="10.178789">
        <ele>372.156645</ele>
        <time>2023-10-20T09:42:44.955Z</time>
      </trkpt>
      <trkpt lat="45.595105" lon="10.179417">
        <ele>370.436357</ele>
        <time>2023-10-20T09:42:51.384Z</time>
      </trkpt>
      <trkpt lat="45.595101" lon="10.179510">
        <ele>370.181311</ele>
        <time>2023-10-20T09:42:52.397Z</time>
      </trkpt>
      <trkpt lat="45.595045" lon="10.180442">
        <ele>367.584239</ele>
        <time>2023-10-20T09:43:02.623Z</time>
      </trkpt>
      <trkpt lat="45.594992" lon="10.180919">
        <ele>366.242471</ele>
        <time>2023-10-20T09:43:08.727Z</time>
      </trkpt>
      <trkpt lat="45.594939" lon="10.181351">
        <ele>365.024013</ele>
        <time>2023-10-20T09:43:14.823Z</time>
      </trkpt>
      <trkpt lat="45.594899" lon="10.181570">
        <ele>364.395217</ele>
        <time>2023-10-20T09:43:17.644Z</time>
      </trkpt>
      <trkpt lat="45.594889" lon="10.181612">
        <ele>364.271966</ele>
        <time>2023-10-20T09:43:18.158Z</time>
      </trkpt>
      <trkpt lat="45.594673" lon="10.182575">
        <ele>362.113535</ele>
        <time>2023-10-20T09:43:30.196Z</time>
      </trkpt>
      <trkpt lat="45.594658" lon="10.182642">
        <ele>362.004886</ele>
        <time>2023-10-20T09:43:31.771Z</time>
      </trkpt>
      <trkpt lat="45.594313" lon="10.184348">
        <ele>359.262128</ele>
        <time>2023-10-20T09:44:11.385Z</time>
      </trkpt>
      <trkpt lat="45.594269" lon="10.185087">
        <ele>359.083677</ele>
        <time>2023-10-20T09:44:30.120Z</time>
      </trkpt>
      <trkpt lat="45.594255" lon="10.185340">
        <ele>359.141974</ele>
        <time>2023-10-20T09:44:37.423Z</time>
      </trkpt>
      <trkpt lat="45.594173" lon="10.186521">
        <ele>359.414588</ele>
        <time>2023-10-20T09:45:09.497Z</time>
      </trkpt>
      <trkpt lat="45.594170" lon="10.186559">
        <ele>359.423372</ele>
        <time>2023-10-20T09:45:10.550Z</time>
      </trkpt>
      <trkpt lat="45.594142" lon="10.186661">
        <ele>359.448541</ele>
        <time>2023-10-20T09:45:13.358Z</time>
      </trkpt>
      <trkpt lat="45.593756" lon="10.187208">
        <ele>360.663234</ele>
        <time>2023-10-20T09:45:36.680Z</time>
      </trkpt>
      <trkpt lat="45.593465" lon="10.187554">
        <ele>362.436958</ele>
        <time>2023-10-20T09:45:57.162Z</time>
      </trkpt>
      <trkpt lat="45.593160" lon="10.187818">
        <ele>364.107762</ele>
        <time>2023-10-20T09:46:19.089Z</time>
      </trkpt>
      <trkpt lat="45.592882" lon="10.188319">
        <ele>366.204203</ele>
        <time>2023-10-20T09:46:49.083Z</time>
      </trkpt>
      <trkpt lat="45.592813" lon="10.188475">
        <ele>366.809302</ele>
        <time>2023-10-20T09:46:57.372Z</time>
      </trkpt>
      <trkpt lat="45.592721" lon="10.188686">
        <ele>367.624433</ele>
        <time>2023-10-20T09:47:09.966Z</time>
      </trkpt>
      <trkpt lat="45.592626" lon="10.188902">
        <ele>369.090943</ele>
        <time>2023-10-20T09:47:21.625Z</time>
      </trkpt>
      <trkpt lat="45.592577" lon="10.189085">
        <ele>370.569166</ele>
        <time>2023-10-20T09:47:32.038Z</time>
      </trkpt>
      <trkpt lat="45.592571" lon="10.189454">
        <ele>373.353754</ele>
        <time>2023-10-20T09:47:52.678Z</time>
      </trkpt>
      <trkpt lat="45.592588" lon="10.189587">
        <ele>374.373744</ele>
        <time>2023-10-20T09:48:01.399Z</time>
      </trkpt>
      <trkpt lat="45.592603" lon="10.189746">
        <ele>375.584136</ele>
        <time>2023-10-20T09:48:11.923Z</time>
      </trkpt>
      <trkpt lat="45.592644" lon="10.190345">
        <ele>380.124719</ele>
        <time>2023-10-20T09:48:52.806Z</time>
      </trkpt>
      <trkpt lat="45.592681" lon="10.190856">
        <ele>384.000421</ele>
        <time>2023-10-20T09:49:30.710Z</time>
      </trkpt>
      <trkpt lat="45.592750" lon="10.191307">
        <ele>387.436103</ele>
        <time>2023-10-20T09:50:05.605Z</time>
      </trkpt>
      <trkpt lat="45.592814" lon="10.191768">
        <ele>389.526967</ele>
        <time>2023-10-20T09:50:38.756Z</time>
      </trkpt>
      <trkpt lat="45.592846" lon="10.192764">
        <ele>393.962623</ele>
        <time>2023-10-20T09:51:33.156Z</time>
      </trkpt>
      <trkpt lat="45.592937" lon="10.192970">
        <ele>395.046410</ele>
        <time>2023-10-20T09:51:43.170Z</time>
      </trkpt>
      <trkpt lat="45.593305" lon="10.193438">
        <ele>398.178279</ele>
        <time>2023-10-20T09:52:06.202Z</time>
      </trkpt>
      <trkpt lat="45.593551" lon="10.193725">
        <ele>398.045003</ele>
        <time>2023-10-20T09:52:17.259Z</time>
      </trkpt>
      <trkpt lat="45.593805" lon="10.194215">
        <ele>396.568683</ele>
        <time>2023-10-20T09:52:30.756Z</time>
      </trkpt>
      <trkpt lat="45.593895" lon="10.194446">
        <ele>395.928597</ele>
        <time>2023-10-20T09:52:36.237Z</time>
      </trkpt>
      <trkpt lat="45.593903" lon="10.194579">
        <ele>395.605421</ele>
        <time>2023-10-20T09:52:39.073Z</time>
      </trkpt>
      <trkpt lat="45.593899" lon="10.194647">
        <ele>395.440215</ele>
        <time>2023-10-20T09:52:40.440Z</time>
      </trkpt>
      <trkpt lat="45.593899" lon="10.194647">
        <ele>395.440215</ele>
        <time>2023-10-20T09:52:40.440Z</time>
      </trkpt>
      <trkpt lat="45.593888" lon="10.194672">
        <ele>395.368720</ele>
        <time>2023-10-20T09:52:41.061Z</time>
      </trkpt>
      <trkpt lat="45.593858" lon="10.194901">
        <ele>394.804688</ele>
        <time>2023-10-20T09:52:45.657Z</time>
      </trkpt>
      <trkpt lat="45.593709" lon="10.195440">
        <ele>393.401650</ele>
        <time>2023-10-20T09:52:57.191Z</time>
      </trkpt>
      <trkpt lat="45.593583" lon="10.195717">
        <ele>392.601802</ele>
        <time>2023-10-20T09:53:03.753Z</time>
      </trkpt>
      <trkpt lat="45.593402" lon="10.196281">
        <ele>390.450506</ele>
        <time>2023-10-20T09:53:16.108Z</time>
      </trkpt>
      <trkpt lat="45.593337" lon="10.196571">
        <ele>389.390145</ele>
        <time>2023-10-20T09:53:22.405Z</time>
      </trkpt>
      <trkpt lat="45.593307" lon="10.196869">
        <ele>388.341782</ele>
        <time>2023-10-20T09:53:28.666Z</time>
      </trkpt>
      <trkpt lat="45.593340" lon="10.197020">
        <ele>387.790930</ele>
        <time>2023-10-20T09:53:32.024Z</time>
      </trkpt>
      <trkpt lat="45.593330" lon="10.197279">
        <ele>386.887683</ele>
        <time>2023-10-20T09:53:37.386Z</time>
      </trkpt>
      <trkpt lat="45.593332" lon="10.198211">
        <ele>383.642308</ele>
        <time>2023-10-20T09:53:55.969Z</time>
      </trkpt>
      <trkpt lat="45.593277" lon="10.198668">
        <ele>381.252976</ele>
        <time>2023-10-20T09:54:05.104Z</time>
      </trkpt>
      <trkpt lat="45.593262" lon="10.198820">
        <ele>380.460046</ele>
        <time>2023-10-20T09:54:08.088Z</time>
      </trkpt>
      <trkpt lat="45.593223" lon="10.199142">
        <ele>378.772014</ele>
        <time>2023-10-20T09:54:14.516Z</time>
      </trkpt>
      <trkpt lat="45.593237" lon="10.199309">
        <ele>377.903201</ele>
        <time>2023-10-20T09:54:17.789Z</time>
      </trkpt>
      <trkpt lat="45.593280" lon="10.199511">
        <ele>376.812550</ele>
        <time>2023-10-20T09:54:21.799Z</time>
      </trkpt>
      <trkpt lat="45.593461" lon="10.199967">
        <ele>374.104500</ele>
        <time>2023-10-20T09:54:31.627Z</time>
      </trkpt>
      <trkpt lat="45.593463" lon="10.200308">
        <ele>372.342999</ele>
        <time>2023-10-20T09:54:37.991Z</time>
      </trkpt>
      <trkpt lat="45.593229" lon="10.201290">
        <ele>364.857314</ele>
        <time>2023-10-20T09:54:56.745Z</time>
      </trkpt>
      <trkpt lat="45.593173" lon="10.201612">
        <ele>362.060972</ele>
        <time>2023-10-20T09:55:02.568Z</time>
      </trkpt>
      <trkpt lat="45.593197" lon="10.201699">
        <ele>361.272824</ele>
        <time>2023-10-20T09:55:04.214Z</time>
      </trkpt>
      <trkpt lat="45.593302" lon="10.201851">
        <ele>359.472721</ele>
        <time>2023-10-20T09:55:07.949Z</time>
      </trkpt>
      <trkpt lat="45.593347" lon="10.201976">
        <ele>358.287993</ele>
        <time>2023-10-20T09:55:10.423Z</time>
      </trkpt>
      <trkpt lat="45.593366" lon="10.202202">
        <ele>356.369597</ele>
        <time>2023-10-20T09:55:14.465Z</time>
      </trkpt>
      <trkpt lat="45.593361" lon="10.202243">
        <ele>356.018846</ele>
        <time>2023-10-20T09:55:15.193Z</time>
      </trkpt>
      <trkpt lat="45.593334" lon="10.202479">
        <ele>354.003460</ele>
        <time>2023-10-20T09:55:19.295Z</time>
      </trkpt>
      <trkpt lat="45.593319" lon="10.202569">
        <ele>353.223733</ele>
        <time>2023-10-20T09:55:20.881Z</time>
      </trkpt>
      <trkpt lat="45.593283" lon="10.202711">
        <ele>351.950849</ele>
        <time>2023-10-20T09:55:23.469Z</time>
      </trkpt>
      <trkpt lat="45.593253" lon="10.202803">
        <ele>351.095427</ele>
        <time>2023-10-20T09:55:25.171Z</time>
      </trkpt>
      <trkpt lat="45.593223" lon="10.202898">
        <ele>350.217022</ele>
        <time>2023-10-20T09:55:26.923Z</time>
      </trkpt>
      <trkpt lat="45.593172" lon="10.203371">
        <ele>345.973046</ele>
        <time>2023-10-20T09:55:34.962Z</time>
      </trkpt>
      <trkpt lat="45.593120" lon="10.203646">
        <ele>343.370515</ele>
        <time>2023-10-20T09:55:39.767Z</time>
      </trkpt>
      <trkpt lat="45.593117" lon="10.204082">
        <ele>339.386999</ele>
        <time>2023-10-20T09:55:47.256Z</time>
      </trkpt>
      <trkpt lat="45.593107" lon="10.204232">
        <ele>338.010383</ele>
        <time>2023-10-20T09:55:49.891Z</time>
      </trkpt>
      <trkpt lat="45.593105" lon="10.204258">
        <ele>337.771415</ele>
        <time>2023-10-20T09:55:50.352Z</time>
      </trkpt>
      <trkpt lat="45.592912" lon="10.204548">
        <ele>334.115012</ele>
        <time>2023-10-20T09:55:57.362Z</time>
      </trkpt>
      <trkpt lat="45.592825" lon="10.204723">
        <ele>332.153772</ele>
        <time>2023-10-20T09:56:01.099Z</time>
      </trkpt>
      <trkpt lat="45.592795" lon="10.204956">
        <ele>329.989322</ele>
        <time>2023-10-20T09:56:05.234Z</time>
      </trkpt>
      <trkpt lat="45.592800" lon="10.205094">
        <ele>328.726849</ele>
        <time>2023-10-20T09:56:07.637Z</time>
      </trkpt>
      <trkpt lat="45.592817" lon="10.205198">
        <ele>327.751113</ele>
        <time>2023-10-20T09:56:09.502Z</time>
      </trkpt>
      <trkpt lat="45.592891" lon="10.205356">
        <ele>326.014113</ele>
        <time>2023-10-20T09:56:12.861Z</time>
      </trkpt>
      <trkpt lat="45.593539" lon="10.205811">
        <ele>317.675353</ele>
        <time>2023-10-20T09:56:30.873Z</time>
      </trkpt>
      <trkpt lat="45.593578" lon="10.205964">
        <ele>316.375452</ele>
        <time>2023-10-20T09:56:33.725Z</time>
      </trkpt>
      <trkpt lat="45.593548" lon="10.206109">
        <ele>315.168393</ele>
        <time>2023-10-20T09:56:36.372Z</time>
      </trkpt>
      <trkpt lat="45.593110" lon="10.206072">
        <ele>310.162818</ele>
        <time>2023-10-20T09:56:47.715Z</time>
      </trkpt>
      <trkpt lat="45.592433" lon="10.205822">
        <ele>301.498600</ele>
        <time>2023-10-20T09:57:05.546Z</time>
      </trkpt>
      <trkpt lat="45.592346" lon="10.205781">
        <ele>300.166333</ele>
        <time>2023-10-20T09:57:07.837Z</time>
      </trkpt>
      <trkpt lat="45.591992" lon="10.205440">
        <ele>293.957713</ele>
        <time>2023-10-20T09:57:18.129Z</time>
      </trkpt>
      <trkpt lat="45.591776" lon="10.205359">
        <ele>290.710059</ele>
        <time>2023-10-20T09:57:23.487Z</time>
      </trkpt>
      <trkpt lat="45.591687" lon="10.205373">
        <ele>289.407909</ele>
        <time>2023-10-20T09:57:25.638Z</time>
      </trkpt>
      <trkpt lat="45.591379" lon="10.205825">
        <ele>282.987404</ele>
        <time>2023-10-20T09:57:36.249Z</time>
      </trkpt>
      <trkpt lat="45.591326" lon="10.205892">
        <ele>281.958317</ele>
        <time>2023-10-20T09:57:37.958Z</time>
      </trkpt>
      <trkpt lat="45.591248" lon="10.205983">
        <ele>280.493936</ele>
        <time>2023-10-20T09:57:40.354Z</time>
      </trkpt>
      <trkpt lat="45.591202" lon="10.206172">
        <ele>278.447823</ele>
        <time>2023-10-20T09:57:43.733Z</time>
      </trkpt>
      <trkpt lat="45.591095" lon="10.206398">
        <ele>275.292338</ele>
        <time>2023-10-20T09:57:48.301Z</time>
      </trkpt>
      <trkpt lat="45.590731" lon="10.206643">
        <ele>268.643181</ele>
        <time>2023-10-20T09:57:58.016Z</time>
      </trkpt>
      <trkpt lat="45.590385" lon="10.206892">
        <ele>262.241189</ele>
        <time>2023-10-20T09:58:07.239Z</time>
      </trkpt>
      <trkpt lat="45.590183" lon="10.207075">
        <ele>258.288719</ele>
        <time>2023-10-20T09:58:12.904Z</time>
      </trkpt>
      <trkpt lat="45.590095" lon="10.207208">
        <ele>256.172001</ele>
        <time>2023-10-20T09:58:15.932Z</time>
      </trkpt>
      <trkpt lat="45.589953" lon="10.207358">
        <ele>253.253825</ele>
        <time>2023-10-20T09:58:20.132Z</time>
      </trkpt>
      <trkpt lat="45.589813" lon="10.207535">
        <ele>250.164732</ele>
        <time>2023-10-20T09:58:24.565Z</time>
      </trkpt>
      <trkpt lat="45.589667" lon="10.207838">
        <ele>246.075701</ele>
        <time>2023-10-20T09:58:30.712Z</time>
      </trkpt>
      <trkpt lat="45.589581" lon="10.208073">
        <ele>243.184042</ele>
        <time>2023-10-20T09:58:35.146Z</time>
      </trkpt>
      <trkpt lat="45.589500" lon="10.208177">
        <ele>241.487305</ele>
        <time>2023-10-20T09:58:37.746Z</time>
      </trkpt>
      <trkpt lat="45.589379" lon="10.208295">
        <ele>239.204723</ele>
        <time>2023-10-20T09:58:41.254Z</time>
      </trkpt>
      <trkpt lat="45.589045" lon="10.208530">
        <ele>233.403806</ele>
        <time>2023-10-20T09:58:50.241Z</time>
      </trkpt>
      <trkpt lat="45.588831" lon="10.208756">
        <ele>229.257529</ele>
        <time>2023-10-20T09:58:56.656Z</time>
      </trkpt>
      <trkpt lat="45.588794" lon="10.208798">
        <ele>228.521244</ele>
        <time>2023-10-20T09:58:57.282Z</time>
      </trkpt>
      <trkpt lat="45.588571" lon="10.209198">
        <ele>222.944721</ele>
        <time>2023-10-20T09:59:02.111Z</time>
      </trkpt>
      <trkpt lat="45.588470" lon="10.209461">
        <ele>220.067993</ele>
        <time>2023-10-20T09:59:04.921Z</time>
      </trkpt>
      <trkpt lat="45.588389" lon="10.210059">
        <ele>215.796509</ele>
        <time>2023-10-20T09:59:10.704Z</time>
      </trkpt>
      <trkpt lat="45.588343" lon="10.210219">
        <ele>214.583461</ele>
        <time>2023-10-20T09:59:12.403Z</time>
      </trkpt>
      <trkpt lat="45.588329" lon="10.210268">
        <ele>214.212298</ele>
        <time>2023-10-20T09:59:12.910Z</time>
      </trkpt>
      <trkpt lat="45.588244" lon="10.210572">
        <ele>211.916536</ele>
        <time>2023-10-20T09:59:16.126Z</time>
      </trkpt>
      <trkpt lat="45.588193" lon="10.210910">
        <ele>209.491732</ele>
        <time>2023-10-20T09:59:19.589Z</time>
      </trkpt>
      <trkpt lat="45.588162" lon="10.210916">
        <ele>209.178243</ele>
        <time>2023-10-20T09:59:20.047Z</time>
      </trkpt>
      <trkpt lat="45.588133" lon="10.210870">
        <ele>208.744056</ele>
        <time>2023-10-20T09:59:20.705Z</time>
      </trkpt>
      <trkpt lat="45.588121" lon="10.210742">
        <ele>207.838394</ele>
        <time>2023-10-20T09:59:22.100Z</time>
      </trkpt>
      <trkpt lat="45.588094" lon="10.210700">
        <ele>207.438444</ele>
        <time>2023-10-20T09:59:22.695Z</time>
      </trkpt>
      <trkpt lat="45.588015" lon="10.210701">
        <ele>206.646751</ele>
        <time>2023-10-20T09:59:23.862Z</time>
      </trkpt>
      <trkpt lat="45.587972" lon="10.210772">
        <ele>205.988271</ele>
        <time>2023-10-20T09:59:24.813Z</time>
      </trkpt>
      <trkpt lat="45.587938" lon="10.211101">
        <ele>203.656021</ele>
        <time>2023-10-20T09:59:28.471Z</time>
      </trkpt>
      <trkpt lat="45.587949" lon="10.211274">
        <ele>202.636304</ele>
        <time>2023-10-20T09:59:30.264Z</time>
      </trkpt>
      <trkpt lat="45.587987" lon="10.211415">
        <ele>202.240493</ele>
        <time>2023-10-20T09:59:31.898Z</time>
      </trkpt>
      <trkpt lat="45.588136" lon="10.211575">
        <ele>201.542806</ele>
        <time>2023-10-20T09:59:34.918Z</time>
      </trkpt>
      <trkpt lat="45.588235" lon="10.211611">
        <ele>201.160406</ele>
        <time>2023-10-20T09:59:36.459Z</time>
      </trkpt>
      <trkpt lat="45.588421" lon="10.211570">
        <ele>200.455914</ele>
        <time>2023-10-20T09:59:39.596Z</time>
      </trkpt>
      <trkpt lat="45.588726" lon="10.211326">
        <ele>199.147458</ele>
        <time>2023-10-20T09:59:45.382Z</time>
      </trkpt>
      <trkpt lat="45.588789" lon="10.211380">
        <ele>198.872457</ele>
        <time>2023-10-20T09:59:46.631Z</time>
      </trkpt>
      <trkpt lat="45.588777" lon="10.211696">
        <ele>198.043450</ele>
        <time>2023-10-20T09:59:50.380Z</time>
      </trkpt>
      <trkpt lat="45.588704" lon="10.211959">
        <ele>197.302284</ele>
        <time>2023-10-20T09:59:54.054Z</time>
      </trkpt>
      <trkpt lat="45.588628" lon="10.212091">
        <ele>196.854508</ele>
        <time>2023-10-20T09:59:56.153Z</time>
      </trkpt>
      <trkpt lat="45.588707" lon="10.212250">
        <ele>196.343689</ele>
        <time>2023-10-20T10:00:01.184Z</time>
      </trkpt>
      <trkpt lat="45.588766" lon="10.212367">
        <ele>195.984142</ele>
        <time>2023-10-20T10:00:03.117Z</time>
      </trkpt>
      <trkpt lat="45.588785" lon="10.212417">
        <ele>195.883733</ele>
        <time>2023-10-20T10:00:04.393Z</time>
      </trkpt>
      <trkpt lat="45.588718" lon="10.212942">
        <ele>194.941938</ele>
        <time>2023-10-20T10:00:11.339Z</time>
      </trkpt>
      <trkpt lat="45.588673" lon="10.213040">
        <ele>194.735081</ele>
        <time>2023-10-20T10:00:12.729Z</time>
      </trkpt>
      <trkpt lat="45.588697" lon="10.213077">
        <ele>194.646048</ele>
        <time>2023-10-20T10:00:13.403Z</time>
      </trkpt>
      <trkpt lat="45.589364" lon="10.213262">
        <ele>192.932592</ele>
        <time>2023-10-20T10:00:24.915Z</time>
      </trkpt>
      <trkpt lat="45.589480" lon="10.213335">
        <ele>192.612948</ele>
        <time>2023-10-20T10:00:27.216Z</time>
      </trkpt>
      <trkpt lat="45.589527" lon="10.214465">
        <ele>190.916366</ele>
        <time>2023-10-20T10:00:41.420Z</time>
      </trkpt>
      <trkpt lat="45.589428" lon="10.215247">
        <ele>189.998967</ele>
        <time>2023-10-20T10:00:51.711Z</time>
      </trkpt>
      <trkpt lat="45.589247" lon="10.215455">
        <ele>189.615811</ele>
        <time>2023-10-20T10:00:55.948Z</time>
      </trkpt>
      <trkpt lat="45.589195" lon="10.215573">
        <ele>189.454831</ele>
        <time>2023-10-20T10:00:57.714Z</time>
      </trkpt>
      <trkpt lat="45.589181" lon="10.215611">
        <ele>189.405255</ele>
        <time>2023-10-20T10:00:58.250Z</time>
      </trkpt>
      <trkpt lat="45.589278" lon="10.215844">
        <ele>189.092280</ele>
        <time>2023-10-20T10:01:01.839Z</time>
      </trkpt>
      <trkpt lat="45.589432" lon="10.216357">
        <ele>188.551715</ele>
        <time>2023-10-20T10:01:09.762Z</time>
      </trkpt>
      <trkpt lat="45.589530" lon="10.216635">
        <ele>188.718573</ele>
        <time>2023-10-20T10:01:14.498Z</time>
      </trkpt>
      <trkpt lat="45.589731" lon="10.216760">
        <ele>188.886486</ele>
        <time>2023-10-20T10:01:19.873Z</time>
      </trkpt>
      <trkpt lat="45.590216" lon="10.217048">
        <ele>189.288793</ele>
        <time>2023-10-20T10:01:33.709Z</time>
      </trkpt>
      <trkpt lat="45.590412" lon="10.216655">
        <ele>189.547478</ele>
        <time>2023-10-20T10:01:43.650Z</time>
      </trkpt>
      <trkpt lat="45.590858" lon="10.216689">
        <ele>189.889597</ele>
        <time>2023-10-20T10:01:57.287Z</time>
      </trkpt>
      <trkpt lat="45.591393" lon="10.216698">
        <ele>190.630192</ele>
        <time>2023-10-20T10:02:12.856Z</time>
      </trkpt>
      <trkpt lat="45.591432" lon="10.216694">
        <ele>190.684731</ele>
        <time>2023-10-20T10:02:14.078Z</time>
      </trkpt>
      <trkpt lat="45.591753" lon="10.216601">
        <ele>191.141586</ele>
        <time>2023-10-20T10:02:24.637Z</time>
      </trkpt>
      <trkpt lat="45.592234" lon="10.216325">
        <ele>191.864571</ele>
        <time>2023-10-20T10:02:39.836Z</time>
      </trkpt>
      <trkpt lat="45.592553" lon="10.216306">
        <ele>192.309913</ele>
        <time>2023-10-20T10:02:48.721Z</time>
      </trkpt>
      <trkpt lat="45.592748" lon="10.216248">
        <ele>192.552765</ele>
        <time>2023-10-20T10:02:53.990Z</time>
      </trkpt>
      <trkpt lat="45.592808" lon="10.216199">
        <ele>192.630672</ele>
        <time>2023-10-20T10:02:56.020Z</time>
      </trkpt>
      <trkpt lat="45.593148" lon="10.216000">
        <ele>193.044877</ele>
        <time>2023-10-20T10:03:05.119Z</time>
      </trkpt>
      <trkpt lat="45.593230" lon="10.215964">
        <ele>193.141585</ele>
        <time>2023-10-20T10:03:07.114Z</time>
      </trkpt>
      <trkpt lat="45.593490" lon="10.215951">
        <ele>193.434878</ele>
        <time>2023-10-20T10:03:13.460Z</time>
      </trkpt>
      <trkpt lat="45.593685" lon="10.215963">
        <ele>193.654917</ele>
        <time>2023-10-20T10:03:18.548Z</time>
      </trkpt>
      <trkpt lat="45.593982" lon="10.215503">
        <ele>194.148666</ele>
        <time>2023-10-20T10:03:31.627Z</time>
      </trkpt>
      <trkpt lat="45.594230" lon="10.215346">
        <ele>194.446849</ele>
        <time>2023-10-20T10:03:40.856Z</time>
      </trkpt>
      <trkpt lat="45.594304" lon="10.215313">
        <ele>194.503128</ele>
        <time>2023-10-20T10:03:43.767Z</time>
      </trkpt>
      <trkpt lat="45.594499" lon="10.215260">
        <ele>194.647235</ele>
        <time>2023-10-20T10:03:50.048Z</time>
      </trkpt>
      <trkpt lat="45.594767" lon="10.215359">
        <ele>194.848199</ele>
        <time>2023-10-20T10:03:58.399Z</time>
      </trkpt>
      <trkpt lat="45.595192" lon="10.215607">
        <ele>195.181479</ele>
        <time>2023-10-20T10:04:10.086Z</time>
      </trkpt>
      <trkpt lat="45.595430" lon="10.215631">
        <ele>195.354696</ele>
        <time>2023-10-20T10:04:15.522Z</time>
      </trkpt>
      <trkpt lat="45.595592" lon="10.215706">
        <ele>195.478326</ele>
        <time>2023-10-20T10:04:19.002Z</time>
      </trkpt>
      <trkpt lat="45.595696" lon="10.215897">
        <ele>195.601270</ele>
        <time>2023-10-20T10:04:22.823Z</time>
      </trkpt>
      <trkpt lat="45.595852" lon="10.216225">
        <ele>195.676201</ele>
        <time>2023-10-20T10:04:29.650Z</time>
      </trkpt>
      <trkpt lat="45.595958" lon="10.216886">
        <ele>195.337786</ele>
        <time>2023-10-20T10:04:41.999Z</time>
      </trkpt>
      <trkpt lat="45.596036" lon="10.217078">
        <ele>195.226993</ele>
        <time>2023-10-20T10:04:45.297Z</time>
      </trkpt>
      <trkpt lat="45.596305" lon="10.217270">
        <ele>195.012546</ele>
        <time>2023-10-20T10:04:51.593Z</time>
      </trkpt>
      <trkpt lat="45.596999" lon="10.216960">
        <ele>194.493973</ele>
        <time>2023-10-20T10:05:05.531Z</time>
      </trkpt>
      <trkpt lat="45.597190" lon="10.216870">
        <ele>194.672467</ele>
        <time>2023-10-20T10:05:10.421Z</time>
      </trkpt>
      <trkpt lat="45.597254" lon="10.216900">
        <ele>194.770908</ele>
        <time>2023-10-20T10:05:11.819Z</time>
      </trkpt>
      <trkpt lat="45.597281" lon="10.216946">
        <ele>194.832310</ele>
        <time>2023-10-20T10:05:12.614Z</time>
      </trkpt>
      <trkpt lat="45.597503" lon="10.217325">
        <ele>195.337774</ele>
        <time>2023-10-20T10:05:22.250Z</time>
      </trkpt>
      <trkpt lat="45.597542" lon="10.217389">
        <ele>195.424564</ele>
        <time>2023-10-20T10:05:23.869Z</time>
      </trkpt>
      <trkpt lat="45.597566" lon="10.217359">
        <ele>195.471164</ele>
        <time>2023-10-20T10:05:24.908Z</time>
      </trkpt>
      <trkpt lat="45.598120" lon="10.216731">
        <ele>196.504625</ele>
        <time>2023-10-20T10:05:49.694Z</time>
      </trkpt>
      <trkpt lat="45.598586" lon="10.216278">
        <ele>197.747308</ele>
        <time>2023-10-20T10:06:09.708Z</time>
      </trkpt>
      <trkpt lat="45.598877" lon="10.215803">
        <ele>199.504297</ele>
        <time>2023-10-20T10:06:28.674Z</time>
      </trkpt>
      <trkpt lat="45.599326" lon="10.214957">
        <ele>202.459317</ele>
        <time>2023-10-20T10:07:02.759Z</time>
      </trkpt>
      <trkpt lat="45.599541" lon="10.214499">
        <ele>203.994168</ele>
        <time>2023-10-20T10:07:21.117Z</time>
      </trkpt>
      <trkpt lat="45.599817" lon="10.213618">
        <ele>208.043692</ele>
        <time>2023-10-20T10:07:55.846Z</time>
      </trkpt>
      <trkpt lat="45.599899" lon="10.213282">
        <ele>209.586919</ele>
        <time>2023-10-20T10:08:09.994Z</time>
      </trkpt>
      <trkpt lat="45.599947" lon="10.213098">
        <ele>210.438529</ele>
        <time>2023-10-20T10:08:17.508Z</time>
      </trkpt>
      <trkpt lat="45.600336" lon="10.211363">
        <ele>217.407538</ele>
        <time>2023-10-20T10:09:35.183Z</time>
      </trkpt>
      <trkpt lat="45.600758" lon="10.209139">
        <ele>221.875291</ele>
        <time>2023-10-20T10:10:44.438Z</time>
      </trkpt>
      <trkpt lat="45.600944" lon="10.208353">
        <ele>219.590548</ele>
        <time>2023-10-20T10:10:55.164Z</time>
      </trkpt>
      <trkpt lat="45.601160" lon="10.207835">
        <ele>217.930095</ele>
        <time>2023-10-20T10:11:02.484Z</time>
      </trkpt>
      <trkpt lat="45.601416" lon="10.207662">
        <ele>216.815640</ele>
        <time>2023-10-20T10:11:07.282Z</time>
      </trkpt>
      <trkpt lat="45.601732" lon="10.207594">
        <ele>215.415225</ele>
        <time>2023-10-20T10:11:12.580Z</time>
      </trkpt>
      <trkpt lat="45.602151" lon="10.207571">
        <ele>213.144301</ele>
        <time>2023-10-20T10:11:19.493Z</time>
      </trkpt>
      <trkpt lat="45.603644" lon="10.207347">
        <ele>206.097030</ele>
        <time>2023-10-20T10:11:46.629Z</time>
      </trkpt>
      <trkpt lat="45.604463" lon="10.207119">
        <ele>205.717725</ele>
        <time>2023-10-20T10:12:08.199Z</time>
      </trkpt>
      <trkpt lat="45.605306" lon="10.206712">
        <ele>205.510078</ele>
        <time>2023-10-20T10:12:34.198Z</time>
      </trkpt>
      <trkpt lat="45.607129" lon="10.205713">
        <ele>207.244496</ele>
        <time>2023-10-20T10:13:31.613Z</time>
      </trkpt>
      <trkpt lat="45.607621" lon="10.205329">
        <ele>207.662766</ele>
        <time>2023-10-20T10:13:47.532Z</time>
      </trkpt>
      <trkpt lat="45.607778" lon="10.205164">
        <ele>207.808168</ele>
        <time>2023-10-20T10:13:53.092Z</time>
      </trkpt>
      <trkpt lat="45.608205" lon="10.204617">
        <ele>208.235999</ele>
        <time>2023-10-20T10:14:09.143Z</time>
      </trkpt>
      <trkpt lat="45.608285" lon="10.204516">
        <ele>208.315640</ele>
        <time>2023-10-20T10:14:12.125Z</time>
      </trkpt>
      <trkpt lat="45.608309" lon="10.204482">
        <ele>208.340852</ele>
        <time>2023-10-20T10:14:13.107Z</time>
      </trkpt>
      <trkpt lat="45.608595" lon="10.204114">
        <ele>208.620443</ele>
        <time>2023-10-20T10:14:23.602Z</time>
      </trkpt>
      <trkpt lat="45.608857" lon="10.203866">
        <ele>208.848209</ele>
        <time>2023-10-20T10:14:32.157Z</time>
      </trkpt>
      <trkpt lat="45.609138" lon="10.203648">
        <ele>209.079949</ele>
        <time>2023-10-20T10:14:40.910Z</time>
      </trkpt>
      <trkpt lat="45.609548" lon="10.203421">
        <ele>209.398641</ele>
        <time>2023-10-20T10:14:53.516Z</time>
      </trkpt>
      <trkpt lat="45.609572" lon="10.203410">
        <ele>209.416909</ele>
        <time>2023-10-20T10:14:54.188Z</time>
      </trkpt>
      <trkpt lat="45.609612" lon="10.203393">
        <ele>209.447157</ele>
        <time>2023-10-20T10:14:55.384Z</time>
      </trkpt>
      <trkpt lat="45.609591" lon="10.203290">
        <ele>209.501556</ele>
        <time>2023-10-20T10:14:57.472Z</time>
      </trkpt>
      <trkpt lat="45.609561" lon="10.203138">
        <ele>209.581636</ele>
        <time>2023-10-20T10:15:00.502Z</time>
      </trkpt>
      <trkpt lat="45.609591" lon="10.203290">
        <ele>209.661717</ele>
        <time>2023-10-20T10:15:03.461Z</time>
      </trkpt>
      <trkpt lat="45.609612" lon="10.203393">
        <ele>209.753091</ele>
        <time>2023-10-20T10:15:05.563Z</time>
      </trkpt>
      <trkpt lat="45.609655" lon="10.203375">
        <ele>209.810657</ele>
        <time>2023-10-20T10:15:06.815Z</time>
      </trkpt>
      <trkpt lat="45.609677" lon="10.203365">
        <ele>209.840316</ele>
        <time>2023-10-20T10:15:07.481Z</time>
      </trkpt>
      <trkpt lat="45.609662" lon="10.203292">
        <ele>209.908698</ele>
        <time>2023-10-20T10:15:08.889Z</time>
      </trkpt>
      <trkpt lat="45.610640" lon="10.202865">
        <ele>211.222514</ele>
        <time>2023-10-20T10:15:40.281Z</time>
      </trkpt>
      <trkpt lat="45.614636" lon="10.200806">
        <ele>217.437900</ele>
        <time>2023-10-20T10:17:57.187Z</time>
      </trkpt>
      <trkpt lat="45.614865" lon="10.200591">
        <ele>217.768162</ele>
        <time>2023-10-20T10:18:06.538Z</time>
      </trkpt>
      <trkpt lat="45.614956" lon="10.200591">
        <ele>217.877860</ele>
        <time>2023-10-20T10:18:10.749Z</time>
      </trkpt>
      <trkpt lat="45.615072" lon="10.200563">
        <ele>218.019675</ele>
        <time>2023-10-20T10:18:14.499Z</time>
      </trkpt>
      <trkpt lat="45.616206" lon="10.200107">
        <ele>219.439736</ele>
        <time>2023-10-20T10:18:49.774Z</time>
      </trkpt>
      <trkpt lat="45.616339" lon="10.200028">
        <ele>219.567505</ele>
        <time>2023-10-20T10:18:54.026Z</time>
      </trkpt>
      <trkpt lat="45.616417" lon="10.199942">
        <ele>219.619287</ele>
        <time>2023-10-20T10:18:58.008Z</time>
      </trkpt>
      <trkpt lat="45.616771" lon="10.199503">
        <ele>219.865639</ele>
        <time>2023-10-20T10:19:11.273Z</time>
      </trkpt>
      <trkpt lat="45.617029" lon="10.199236">
        <ele>220.033073</ele>
        <time>2023-10-20T10:19:20.030Z</time>
      </trkpt>
      <trkpt lat="45.617804" lon="10.198761">
        <ele>220.476349</ele>
        <time>2023-10-20T10:19:41.711Z</time>
      </trkpt>
      <trkpt lat="45.618450" lon="10.198518">
        <ele>220.859835</ele>
        <time>2023-10-20T10:19:59.732Z</time>
      </trkpt>
      <trkpt lat="45.619207" lon="10.198303">
        <ele>221.303049</ele>
        <time>2023-10-20T10:20:21.301Z</time>
      </trkpt>
      <trkpt lat="45.620287" lon="10.197994">
        <ele>222.336612</ele>
        <time>2023-10-20T10:20:52.930Z</time>
      </trkpt>
      <trkpt lat="45.620945" lon="10.197885">
        <ele>223.075927</ele>
        <time>2023-10-20T10:21:12.987Z</time>
      </trkpt>
      <trkpt lat="45.622944" lon="10.197740">
        <ele>226.015598</ele>
        <time>2023-10-20T10:22:19.288Z</time>
      </trkpt>
      <trkpt lat="45.623055" lon="10.197750">
        <ele>226.188619</ele>
        <time>2023-10-20T10:22:22.397Z</time>
      </trkpt>
      <trkpt lat="45.623249" lon="10.197881">
        <ele>226.425686</ele>
        <time>2023-10-20T10:22:29.229Z</time>
      </trkpt>
      <trkpt lat="45.623293" lon="10.197893">
        <ele>226.462711</ele>
        <time>2023-10-20T10:22:30.836Z</time>
      </trkpt>
      <trkpt lat="45.623318" lon="10.197881">
        <ele>226.484509</ele>
        <time>2023-10-20T10:22:31.716Z</time>
      </trkpt>
      <trkpt lat="45.623333" lon="10.197763">
        <ele>226.553842</ele>
        <time>2023-10-20T10:22:34.301Z</time>
      </trkpt>
      <trkpt lat="45.623352" lon="10.197762">
        <ele>226.569557</ele>
        <time>2023-10-20T10:22:34.975Z</time>
      </trkpt>
      <trkpt lat="45.623371" lon="10.197761">
        <ele>226.585273</ele>
        <time>2023-10-20T10:22:35.664Z</time>
      </trkpt>
      <trkpt lat="45.623559" lon="10.197761">
        <ele>226.740672</ele>
        <time>2023-10-20T10:22:41.556Z</time>
      </trkpt>
      <trkpt lat="45.624705" lon="10.197920">
        <ele>227.692390</ele>
        <time>2023-10-20T10:23:14.199Z</time>
      </trkpt>
      <trkpt lat="45.625726" lon="10.197843">
        <ele>228.521627</ele>
        <time>2023-10-20T10:23:41.281Z</time>
      </trkpt>
      <trkpt lat="45.627205" lon="10.197626">
        <ele>230.284325</ele>
        <time>2023-10-20T10:24:26.463Z</time>
      </trkpt>
      <trkpt lat="45.627665" lon="10.197586">
        <ele>231.104573</ele>
        <time>2023-10-20T10:24:42.163Z</time>
      </trkpt>
      <trkpt lat="45.628373" lon="10.197598">
        <ele>232.364801</ele>
        <time>2023-10-20T10:25:07.426Z</time>
      </trkpt>
      <trkpt lat="45.628699" lon="10.197617">
        <ele>233.143009</ele>
        <time>2023-10-20T10:25:19.284Z</time>
      </trkpt>
      <trkpt lat="45.629089" lon="10.197694">
        <ele>234.128025</ele>
        <time>2023-10-20T10:25:33.875Z</time>
      </trkpt>
      <trkpt lat="45.629703" lon="10.197882">
        <ele>235.699040</ele>
        <time>2023-10-20T10:25:57.829Z</time>
      </trkpt>
      <trkpt lat="45.629732" lon="10.197896">
        <ele>235.775620</ele>
        <time>2023-10-20T10:25:59.000Z</time>
      </trkpt>
      <trkpt lat="45.630143" lon="10.198091">
        <ele>236.859039</ele>
        <time>2023-10-20T10:26:15.618Z</time>
      </trkpt>
      <trkpt lat="45.630769" lon="10.198475">
        <ele>238.008526</ele>
        <time>2023-10-20T10:26:38.530Z</time>
      </trkpt>
      <trkpt lat="45.631180" lon="10.198896">
        <ele>238.836066</ele>
        <time>2023-10-20T10:26:53.752Z</time>
      </trkpt>
      <trkpt lat="45.631271" lon="10.199022">
        <ele>239.043403</ele>
        <time>2023-10-20T10:26:56.997Z</time>
      </trkpt>
      <trkpt lat="45.631299" lon="10.199136">
        <ele>239.181705</ele>
        <time>2023-10-20T10:26:58.898Z</time>
      </trkpt>
      <trkpt lat="45.631331" lon="10.199174">
        <ele>239.249790</ele>
        <time>2023-10-20T10:27:00.121Z</time>
      </trkpt>
      <trkpt lat="45.631574" lon="10.199389">
        <ele>239.717527</ele>
        <time>2023-10-20T10:27:07.779Z</time>
      </trkpt>
      <trkpt lat="45.631611" lon="10.199454">
        <ele>239.813461</ele>
        <time>2023-10-20T10:27:09.441Z</time>
      </trkpt>
      <trkpt lat="45.631593" lon="10.199535">
        <ele>239.908724</ele>
        <time>2023-10-20T10:27:11.320Z</time>
      </trkpt>
      <trkpt lat="45.631549" lon="10.199539">
        <ele>239.962053</ele>
        <time>2023-10-20T10:27:12.608Z</time>
      </trkpt>
      <trkpt lat="45.631529" lon="10.199510">
        <ele>239.996505</ele>
        <time>2023-10-20T10:27:13.404Z</time>
      </trkpt>
      <trkpt lat="45.631538" lon="10.199427">
        <ele>240.067547</ele>
        <time>2023-10-20T10:27:15.024Z</time>
      </trkpt>
      <trkpt lat="45.631567" lon="10.199403">
        <ele>240.108076</ele>
        <time>2023-10-20T10:27:15.871Z</time>
      </trkpt>
      <trkpt lat="45.631646" lon="10.199416">
        <ele>240.204264</ele>
        <time>2023-10-20T10:27:17.620Z</time>
      </trkpt>
      <trkpt lat="45.631853" lon="10.199551">
        <ele>240.479456</ele>
        <time>2023-10-20T10:27:24.307Z</time>
      </trkpt>
      <trkpt lat="45.631894" lon="10.199567">
        <ele>240.530863</ele>
        <time>2023-10-20T10:27:25.522Z</time>
      </trkpt>
      <trkpt lat="45.632096" lon="10.198976">
        <ele>241.087262</ele>
        <time>2023-10-20T10:27:37.795Z</time>
      </trkpt>
      <trkpt lat="45.632225" lon="10.199089">
        <ele>241.270245</ele>
        <time>2023-10-20T10:27:42.431Z</time>
      </trkpt>
      <trkpt lat="45.632538" lon="10.199298">
        <ele>241.688082</ele>
        <time>2023-10-20T10:27:53.889Z</time>
      </trkpt>
      <trkpt lat="45.632884" lon="10.199457">
        <ele>242.108550</ele>
        <time>2023-10-20T10:28:05.691Z</time>
      </trkpt>
      <trkpt lat="45.633749" lon="10.199734">
        <ele>242.762756</ele>
        <time>2023-10-20T10:28:31.591Z</time>
      </trkpt>
      <trkpt lat="45.634028" lon="10.199777">
        <ele>242.969859</ele>
        <time>2023-10-20T10:28:40.023Z</time>
      </trkpt>
      <trkpt lat="45.634192" lon="10.199748">
        <ele>243.091818</ele>
        <time>2023-10-20T10:28:44.689Z</time>
      </trkpt>
      <trkpt lat="45.634219" lon="10.199720">
        <ele>243.116432</ele>
        <time>2023-10-20T10:28:45.462Z</time>
      </trkpt>
      <trkpt lat="45.634236" lon="10.199631">
        <ele>243.164044</ele>
        <time>2023-10-20T10:28:46.895Z</time>
      </trkpt>
      <trkpt lat="45.634268" lon="10.199326">
        <ele>243.323204</ele>
        <time>2023-10-20T10:28:52.127Z</time>
      </trkpt>
      <trkpt lat="45.634280" lon="10.199238">
        <ele>243.369473</ele>
        <time>2023-10-20T10:28:54.638Z</time>
      </trkpt>
      <trkpt lat="45.634310" lon="10.199169">
        <ele>243.406072</ele>
        <time>2023-10-20T10:28:55.850Z</time>
      </trkpt>
      <trkpt lat="45.634412" lon="10.199029">
        <ele>243.406072</ele>
        <time>2023-10-20T10:28:59.058Z</time>
      </trkpt>
      <trkpt lat="45.634479" lon="10.198932">
        <ele>243.406072</ele>
        <time>2023-10-20T10:29:01.082Z</time>
      </trkpt>
      <trkpt lat="45.634475" lon="10.198874">
        <ele>243.406072</ele>
        <time>2023-10-20T10:29:02.021Z</time>
      </trkpt>
      <trkpt lat="45.634371" lon="10.199014">
        <ele>243.406072</ele>
        <time>2023-10-20T10:29:05.029Z</time>
      </trkpt>
      <trkpt lat="45.634390" lon="10.197501">
        <ele>243.406072</ele>
        <time>2023-10-20T10:29:25.506Z</time>
      </trkpt>
      <trkpt lat="45.633697" lon="10.197488">
        <ele>243.406072</ele>
        <time>2023-10-20T10:29:39.813Z</time>
      </trkpt>
      <trkpt lat="45.633510" lon="10.197522">
        <ele>243.406072</ele>
        <time>2023-10-20T10:29:43.733Z</time>
      </trkpt>
    </trkseg>
  </trk>
</gpx>